<?xml version="1.0" encoding="UTF-8" standalone="no" ?>
<gpx xmlns="http://www.topografix.com/GPX/1/1" xmlns:xsi="http://www.w3.org/2001/XMLSchema-instance" xsi:schemaLocation="http://www.topografix.com/GPX/1/1 http://www.topografix.com/GPX/1/1/gpx.xsd" version="1.1" creator="VisuGPX - https://www.visugpx.com">
  <metadata>
    <name>TAHITI - PEDESTRE - Papeete - La Fautaua itinéraire aux vasques de Fachoda</name>
    <desc><![CDATA[Sortie prévue pour le jardin du gouverneur interrompue par la pluie arrêt aux vasques de Fachoda]]></desc>
  </metadata>
  <wpt lat="-17.56196" lon="-149.53959">
    <ele>98.179688</ele>
    <name><![CDATA[005]]></name>
    <desc><![CDATA[24-MAI-12 6:49:59]]></desc>
  </wpt>
  <trk>
    <name><![CDATA[ACTIVE LOG 024]]></name>
    <trkseg>
      <trkpt lat="-17.56192" lon="-149.53958">
        <ele>97.711182</ele>
        <time>2012-05-24T17:49:46Z</time>
      </trkpt>
      <trkpt lat="-17.56192" lon="-149.53958">
        <ele>97.230469</ele>
        <time>2012-05-24T17:49:47Z</time>
      </trkpt>
      <trkpt lat="-17.56193" lon="-149.53959">
        <ele>97.230469</ele>
        <time>2012-05-24T17:49:48Z</time>
      </trkpt>
      <trkpt lat="-17.56197" lon="-149.5396">
        <ele>98.191895</ele>
        <time>2012-05-24T17:50:05Z</time>
      </trkpt>
      <trkpt lat="-17.56204" lon="-149.53956">
        <ele>98.191895</ele>
        <time>2012-05-24T17:50:14Z</time>
      </trkpt>
      <trkpt lat="-17.5621" lon="-149.53956">
        <ele>99.153076</ele>
        <time>2012-05-24T17:50:20Z</time>
      </trkpt>
      <trkpt lat="-17.56213" lon="-149.53953">
        <ele>99.633789</ele>
        <time>2012-05-24T17:50:23Z</time>
      </trkpt>
      <trkpt lat="-17.56221" lon="-149.53941">
        <ele>99.153076</ele>
        <time>2012-05-24T17:50:35Z</time>
      </trkpt>
      <trkpt lat="-17.56226" lon="-149.53938">
        <ele>99.153076</ele>
        <time>2012-05-24T17:50:42Z</time>
      </trkpt>
      <trkpt lat="-17.56238" lon="-149.53933">
        <ele>99.153076</ele>
        <time>2012-05-24T17:50:55Z</time>
      </trkpt>
      <trkpt lat="-17.56244" lon="-149.53932">
        <ele>100.114502</ele>
        <time>2012-05-24T17:51:00Z</time>
      </trkpt>
      <trkpt lat="-17.56268" lon="-149.53923">
        <ele>101.075684</ele>
        <time>2012-05-24T17:51:18Z</time>
      </trkpt>
      <trkpt lat="-17.56274" lon="-149.53914">
        <ele>102.037109</ele>
        <time>2012-05-24T17:51:29Z</time>
      </trkpt>
      <trkpt lat="-17.56281" lon="-149.53904">
        <ele>103.959717</ele>
        <time>2012-05-24T17:51:39Z</time>
      </trkpt>
      <trkpt lat="-17.56281" lon="-149.53903">
        <ele>104.44043</ele>
        <time>2012-05-24T17:51:40Z</time>
      </trkpt>
      <trkpt lat="-17.56288" lon="-149.53894">
        <ele>104.921021</ele>
        <time>2012-05-24T17:51:49Z</time>
      </trkpt>
      <trkpt lat="-17.56295" lon="-149.53892">
        <ele>105.401733</ele>
        <time>2012-05-24T17:51:55Z</time>
      </trkpt>
      <trkpt lat="-17.56309" lon="-149.53896">
        <ele>106.843628</ele>
        <time>2012-05-24T17:52:06Z</time>
      </trkpt>
      <trkpt lat="-17.56319" lon="-149.53898">
        <ele>108.285645</ele>
        <time>2012-05-24T17:52:17Z</time>
      </trkpt>
      <trkpt lat="-17.56329" lon="-149.53904">
        <ele>109.246948</ele>
        <time>2012-05-24T17:52:26Z</time>
      </trkpt>
      <trkpt lat="-17.56332" lon="-149.53907">
        <ele>109.727661</ele>
        <time>2012-05-24T17:52:29Z</time>
      </trkpt>
      <trkpt lat="-17.56341" lon="-149.53913">
        <ele>109.246948</ele>
        <time>2012-05-24T17:52:40Z</time>
      </trkpt>
      <trkpt lat="-17.56354" lon="-149.53917">
        <ele>109.727661</ele>
        <time>2012-05-24T17:52:53Z</time>
      </trkpt>
      <trkpt lat="-17.56364" lon="-149.53923">
        <ele>109.727661</ele>
        <time>2012-05-24T17:53:04Z</time>
      </trkpt>
      <trkpt lat="-17.56381" lon="-149.53927">
        <ele>109.727661</ele>
        <time>2012-05-24T17:53:16Z</time>
      </trkpt>
      <trkpt lat="-17.56401" lon="-149.53933">
        <ele>109.246948</ele>
        <time>2012-05-24T17:53:29Z</time>
      </trkpt>
      <trkpt lat="-17.56408" lon="-149.5393">
        <ele>108.766235</ele>
        <time>2012-05-24T17:53:35Z</time>
      </trkpt>
      <trkpt lat="-17.56419" lon="-149.53927">
        <ele>109.246948</ele>
        <time>2012-05-24T17:53:43Z</time>
      </trkpt>
      <trkpt lat="-17.56432" lon="-149.53932">
        <ele>109.727661</ele>
        <time>2012-05-24T17:53:53Z</time>
      </trkpt>
      <trkpt lat="-17.56446" lon="-149.53932">
        <ele>110.208252</ele>
        <time>2012-05-24T17:54:02Z</time>
      </trkpt>
      <trkpt lat="-17.56449" lon="-149.5393">
        <ele>111.169556</ele>
        <time>2012-05-24T17:54:05Z</time>
      </trkpt>
      <trkpt lat="-17.56464" lon="-149.53919">
        <ele>110.208252</ele>
        <time>2012-05-24T17:54:19Z</time>
      </trkpt>
      <trkpt lat="-17.56466" lon="-149.53911">
        <ele>109.727661</ele>
        <time>2012-05-24T17:54:28Z</time>
      </trkpt>
      <trkpt lat="-17.56472" lon="-149.5391">
        <ele>109.727661</ele>
        <time>2012-05-24T17:54:31Z</time>
      </trkpt>
      <trkpt lat="-17.56487" lon="-149.53896">
        <ele>109.727661</ele>
        <time>2012-05-24T17:54:43Z</time>
      </trkpt>
      <trkpt lat="-17.56502" lon="-149.53886">
        <ele>110.208252</ele>
        <time>2012-05-24T17:54:56Z</time>
      </trkpt>
      <trkpt lat="-17.56511" lon="-149.53882">
        <ele>110.688843</ele>
        <time>2012-05-24T17:55:02Z</time>
      </trkpt>
      <trkpt lat="-17.56525" lon="-149.53873">
        <ele>110.688843</ele>
        <time>2012-05-24T17:55:15Z</time>
      </trkpt>
      <trkpt lat="-17.56538" lon="-149.53863">
        <ele>111.169556</ele>
        <time>2012-05-24T17:55:26Z</time>
      </trkpt>
      <trkpt lat="-17.56545" lon="-149.53856">
        <ele>111.650269</ele>
        <time>2012-05-24T17:55:34Z</time>
      </trkpt>
      <trkpt lat="-17.56561" lon="-149.53843">
        <ele>112.611572</ele>
        <time>2012-05-24T17:55:47Z</time>
      </trkpt>
      <trkpt lat="-17.56562" lon="-149.53842">
        <ele>112.130981</ele>
        <time>2012-05-24T17:55:49Z</time>
      </trkpt>
      <trkpt lat="-17.56565" lon="-149.53834">
        <ele>112.130981</ele>
        <time>2012-05-24T17:55:54Z</time>
      </trkpt>
      <trkpt lat="-17.56577" lon="-149.53816">
        <ele>112.130981</ele>
        <time>2012-05-24T17:56:09Z</time>
      </trkpt>
      <trkpt lat="-17.56582" lon="-149.53812">
        <ele>112.611572</ele>
        <time>2012-05-24T17:56:13Z</time>
      </trkpt>
      <trkpt lat="-17.56586" lon="-149.53809">
        <ele>112.611572</ele>
        <time>2012-05-24T17:56:17Z</time>
      </trkpt>
      <trkpt lat="-17.56598" lon="-149.53803">
        <ele>112.611572</ele>
        <time>2012-05-24T17:56:27Z</time>
      </trkpt>
      <trkpt lat="-17.56603" lon="-149.53798">
        <ele>112.611572</ele>
        <time>2012-05-24T17:56:33Z</time>
      </trkpt>
      <trkpt lat="-17.56618" lon="-149.53791">
        <ele>113.092285</ele>
        <time>2012-05-24T17:56:46Z</time>
      </trkpt>
      <trkpt lat="-17.56638" lon="-149.53787">
        <ele>113.572998</ele>
        <time>2012-05-24T17:57:01Z</time>
      </trkpt>
      <trkpt lat="-17.56649" lon="-149.53785">
        <ele>114.053589</ele>
        <time>2012-05-24T17:57:09Z</time>
      </trkpt>
      <trkpt lat="-17.56666" lon="-149.53787">
        <ele>115.495605</ele>
        <time>2012-05-24T17:57:20Z</time>
      </trkpt>
      <trkpt lat="-17.56685" lon="-149.53784">
        <ele>116.456787</ele>
        <time>2012-05-24T17:57:33Z</time>
      </trkpt>
      <trkpt lat="-17.56696" lon="-149.53779">
        <ele>116.9375</ele>
        <time>2012-05-24T17:57:42Z</time>
      </trkpt>
      <trkpt lat="-17.56709" lon="-149.53774">
        <ele>117.418213</ele>
        <time>2012-05-24T17:57:55Z</time>
      </trkpt>
      <trkpt lat="-17.56716" lon="-149.53766">
        <ele>117.418213</ele>
        <time>2012-05-24T17:58:04Z</time>
      </trkpt>
      <trkpt lat="-17.56728" lon="-149.53757">
        <ele>117.418213</ele>
        <time>2012-05-24T17:58:14Z</time>
      </trkpt>
      <trkpt lat="-17.5674" lon="-149.53753">
        <ele>117.898804</ele>
        <time>2012-05-24T17:58:23Z</time>
      </trkpt>
      <trkpt lat="-17.5676" lon="-149.53751">
        <ele>118.860107</ele>
        <time>2012-05-24T17:58:35Z</time>
      </trkpt>
      <trkpt lat="-17.56764" lon="-149.53747">
        <ele>119.821411</ele>
        <time>2012-05-24T17:58:47Z</time>
      </trkpt>
      <trkpt lat="-17.56782" lon="-149.53748">
        <ele>120.782837</ele>
        <time>2012-05-24T17:58:56Z</time>
      </trkpt>
      <trkpt lat="-17.56806" lon="-149.53743">
        <ele>120.782837</ele>
        <time>2012-05-24T17:59:11Z</time>
      </trkpt>
      <trkpt lat="-17.5682" lon="-149.5374">
        <ele>121.744141</ele>
        <time>2012-05-24T17:59:21Z</time>
      </trkpt>
      <trkpt lat="-17.56835" lon="-149.53738">
        <ele>121.744141</ele>
        <time>2012-05-24T17:59:34Z</time>
      </trkpt>
      <trkpt lat="-17.56853" lon="-149.53736">
        <ele>122.705444</ele>
        <time>2012-05-24T17:59:48Z</time>
      </trkpt>
      <trkpt lat="-17.56866" lon="-149.53737">
        <ele>124.147339</ele>
        <time>2012-05-24T17:59:59Z</time>
      </trkpt>
      <trkpt lat="-17.56879" lon="-149.53745">
        <ele>126.550659</ele>
        <time>2012-05-24T18:00:12Z</time>
      </trkpt>
      <trkpt lat="-17.56898" lon="-149.53745">
        <ele>128.473389</ele>
        <time>2012-05-24T18:00:23Z</time>
      </trkpt>
      <trkpt lat="-17.56911" lon="-149.53746">
        <ele>127.992554</ele>
        <time>2012-05-24T18:00:33Z</time>
      </trkpt>
      <trkpt lat="-17.56926" lon="-149.53749">
        <ele>129.915283</ele>
        <time>2012-05-24T18:00:44Z</time>
      </trkpt>
      <trkpt lat="-17.56935" lon="-149.53749">
        <ele>129.915283</ele>
        <time>2012-05-24T18:00:52Z</time>
      </trkpt>
      <trkpt lat="-17.5695" lon="-149.53746">
        <ele>131.837891</ele>
        <time>2012-05-24T18:01:07Z</time>
      </trkpt>
      <trkpt lat="-17.56966" lon="-149.53746">
        <ele>131.837891</ele>
        <time>2012-05-24T18:01:19Z</time>
      </trkpt>
      <trkpt lat="-17.56978" lon="-149.53743">
        <ele>132.318604</ele>
        <time>2012-05-24T18:01:29Z</time>
      </trkpt>
      <trkpt lat="-17.56996" lon="-149.53748">
        <ele>132.799316</ele>
        <time>2012-05-24T18:01:42Z</time>
      </trkpt>
      <trkpt lat="-17.57013" lon="-149.53748">
        <ele>132.799316</ele>
        <time>2012-05-24T18:01:53Z</time>
      </trkpt>
      <trkpt lat="-17.5702" lon="-149.53741">
        <ele>133.279907</ele>
        <time>2012-05-24T18:02:02Z</time>
      </trkpt>
      <trkpt lat="-17.5703" lon="-149.53743">
        <ele>133.760498</ele>
        <time>2012-05-24T18:02:08Z</time>
      </trkpt>
      <trkpt lat="-17.57045" lon="-149.5375">
        <ele>135.202515</ele>
        <time>2012-05-24T18:02:20Z</time>
      </trkpt>
      <trkpt lat="-17.57058" lon="-149.53758">
        <ele>136.644653</ele>
        <time>2012-05-24T18:02:32Z</time>
      </trkpt>
      <trkpt lat="-17.57059" lon="-149.53759">
        <ele>137.125244</ele>
        <time>2012-05-24T18:02:33Z</time>
      </trkpt>
      <trkpt lat="-17.5707" lon="-149.53757">
        <ele>138.086548</ele>
        <time>2012-05-24T18:02:43Z</time>
      </trkpt>
      <trkpt lat="-17.57077" lon="-149.5375">
        <ele>138.567261</ele>
        <time>2012-05-24T18:02:52Z</time>
      </trkpt>
      <trkpt lat="-17.57091" lon="-149.53744">
        <ele>139.528442</ele>
        <time>2012-05-24T18:03:03Z</time>
      </trkpt>
      <trkpt lat="-17.57097" lon="-149.53745">
        <ele>139.047852</ele>
        <time>2012-05-24T18:03:06Z</time>
      </trkpt>
      <trkpt lat="-17.57104" lon="-149.53746">
        <ele>139.047852</ele>
        <time>2012-05-24T18:03:10Z</time>
      </trkpt>
      <trkpt lat="-17.57123" lon="-149.53742">
        <ele>138.567261</ele>
        <time>2012-05-24T18:03:23Z</time>
      </trkpt>
      <trkpt lat="-17.57135" lon="-149.53741">
        <ele>138.086548</ele>
        <time>2012-05-24T18:03:32Z</time>
      </trkpt>
      <trkpt lat="-17.57141" lon="-149.53743">
        <ele>137.605835</ele>
        <time>2012-05-24T18:03:37Z</time>
      </trkpt>
      <trkpt lat="-17.57157" lon="-149.53744">
        <ele>137.605835</ele>
        <time>2012-05-24T18:03:47Z</time>
      </trkpt>
      <trkpt lat="-17.5718" lon="-149.5374">
        <ele>136.16394</ele>
        <time>2012-05-24T18:04:01Z</time>
      </trkpt>
      <trkpt lat="-17.57193" lon="-149.53734">
        <ele>136.16394</ele>
        <time>2012-05-24T18:04:12Z</time>
      </trkpt>
      <trkpt lat="-17.5721" lon="-149.53727">
        <ele>137.605835</ele>
        <time>2012-05-24T18:04:25Z</time>
      </trkpt>
      <trkpt lat="-17.57215" lon="-149.53723">
        <ele>137.605835</ele>
        <time>2012-05-24T18:04:29Z</time>
      </trkpt>
      <trkpt lat="-17.57228" lon="-149.53723">
        <ele>138.567261</ele>
        <time>2012-05-24T18:04:36Z</time>
      </trkpt>
      <trkpt lat="-17.57233" lon="-149.53721">
        <ele>138.567261</ele>
        <time>2012-05-24T18:04:39Z</time>
      </trkpt>
      <trkpt lat="-17.57247" lon="-149.53722">
        <ele>140.009155</ele>
        <time>2012-05-24T18:04:46Z</time>
      </trkpt>
      <trkpt lat="-17.57255" lon="-149.53724">
        <ele>140.489868</ele>
        <time>2012-05-24T18:04:49Z</time>
      </trkpt>
      <trkpt lat="-17.57268" lon="-149.53725">
        <ele>140.970459</ele>
        <time>2012-05-24T18:04:55Z</time>
      </trkpt>
      <trkpt lat="-17.57295" lon="-149.53721">
        <ele>143.85437</ele>
        <time>2012-05-24T18:05:11Z</time>
      </trkpt>
      <trkpt lat="-17.57302" lon="-149.53704">
        <ele>144.335205</ele>
        <time>2012-05-24T18:05:26Z</time>
      </trkpt>
      <trkpt lat="-17.57308" lon="-149.537">
        <ele>146.257812</ele>
        <time>2012-05-24T18:05:37Z</time>
      </trkpt>
      <trkpt lat="-17.57315" lon="-149.53703">
        <ele>147.699707</ele>
        <time>2012-05-24T18:05:40Z</time>
      </trkpt>
      <trkpt lat="-17.57325" lon="-149.5369">
        <ele>148.661011</ele>
        <time>2012-05-24T18:05:53Z</time>
      </trkpt>
      <trkpt lat="-17.57327" lon="-149.53686">
        <ele>149.622314</ele>
        <time>2012-05-24T18:05:55Z</time>
      </trkpt>
      <trkpt lat="-17.57339" lon="-149.53672">
        <ele>150.103027</ele>
        <time>2012-05-24T18:06:08Z</time>
      </trkpt>
      <trkpt lat="-17.57343" lon="-149.53665">
        <ele>150.103027</ele>
        <time>2012-05-24T18:06:13Z</time>
      </trkpt>
      <trkpt lat="-17.57335" lon="-149.53637">
        <ele>150.103027</ele>
        <time>2012-05-24T18:06:17Z</time>
      </trkpt>
      <trkpt lat="-17.57335" lon="-149.53627">
        <ele>150.583618</ele>
        <time>2012-05-24T18:06:22Z</time>
      </trkpt>
      <trkpt lat="-17.57325" lon="-149.53598">
        <ele>151.544922</ele>
        <time>2012-05-24T18:06:35Z</time>
      </trkpt>
      <trkpt lat="-17.57312" lon="-149.53571">
        <ele>152.506348</ele>
        <time>2012-05-24T18:06:43Z</time>
      </trkpt>
      <trkpt lat="-17.57306" lon="-149.53554">
        <ele>151.064209</ele>
        <time>2012-05-24T18:06:57Z</time>
      </trkpt>
      <trkpt lat="-17.57308" lon="-149.53549">
        <ele>150.103027</ele>
        <time>2012-05-24T18:07:05Z</time>
      </trkpt>
      <trkpt lat="-17.57322" lon="-149.53551">
        <ele>149.622314</ele>
        <time>2012-05-24T18:07:17Z</time>
      </trkpt>
      <trkpt lat="-17.57338" lon="-149.5356">
        <ele>149.141602</ele>
        <time>2012-05-24T18:07:22Z</time>
      </trkpt>
      <trkpt lat="-17.57348" lon="-149.53564">
        <ele>148.661011</ele>
        <time>2012-05-24T18:07:26Z</time>
      </trkpt>
      <trkpt lat="-17.57381" lon="-149.53563">
        <ele>149.622314</ele>
        <time>2012-05-24T18:07:41Z</time>
      </trkpt>
      <trkpt lat="-17.57383" lon="-149.5355">
        <ele>150.103027</ele>
        <time>2012-05-24T18:07:51Z</time>
      </trkpt>
      <trkpt lat="-17.574" lon="-149.53545">
        <ele>150.583618</ele>
        <time>2012-05-24T18:08:04Z</time>
      </trkpt>
      <trkpt lat="-17.57404" lon="-149.53546">
        <ele>150.583618</ele>
        <time>2012-05-24T18:08:06Z</time>
      </trkpt>
      <trkpt lat="-17.57408" lon="-149.53547">
        <ele>150.583618</ele>
        <time>2012-05-24T18:08:08Z</time>
      </trkpt>
      <trkpt lat="-17.57416" lon="-149.53545">
        <ele>150.583618</ele>
        <time>2012-05-24T18:08:13Z</time>
      </trkpt>
      <trkpt lat="-17.57433" lon="-149.53525">
        <ele>151.544922</ele>
        <time>2012-05-24T18:08:32Z</time>
      </trkpt>
      <trkpt lat="-17.57453" lon="-149.5351">
        <ele>151.064209</ele>
        <time>2012-05-24T18:08:51Z</time>
      </trkpt>
      <trkpt lat="-17.57475" lon="-149.535">
        <ele>152.506348</ele>
        <time>2012-05-24T18:09:09Z</time>
      </trkpt>
      <trkpt lat="-17.57493" lon="-149.53493">
        <ele>152.506348</ele>
        <time>2012-05-24T18:09:25Z</time>
      </trkpt>
      <trkpt lat="-17.57511" lon="-149.53486">
        <ele>152.506348</ele>
        <time>2012-05-24T18:09:40Z</time>
      </trkpt>
      <trkpt lat="-17.57523" lon="-149.53475">
        <ele>152.986938</ele>
        <time>2012-05-24T18:09:54Z</time>
      </trkpt>
      <trkpt lat="-17.57538" lon="-149.53474">
        <ele>152.986938</ele>
        <time>2012-05-24T18:10:05Z</time>
      </trkpt>
      <trkpt lat="-17.57575" lon="-149.53479">
        <ele>154.428955</ele>
        <time>2012-05-24T18:10:23Z</time>
      </trkpt>
      <trkpt lat="-17.57595" lon="-149.5346">
        <ele>157.312866</ele>
        <time>2012-05-24T18:10:43Z</time>
      </trkpt>
      <trkpt lat="-17.57599" lon="-149.53457">
        <ele>157.312866</ele>
        <time>2012-05-24T18:10:47Z</time>
      </trkpt>
      <trkpt lat="-17.57604" lon="-149.53453">
        <ele>157.793579</ele>
        <time>2012-05-24T18:10:52Z</time>
      </trkpt>
      <trkpt lat="-17.57609" lon="-149.53451">
        <ele>158.754761</ele>
        <time>2012-05-24T18:10:56Z</time>
      </trkpt>
      <trkpt lat="-17.5762" lon="-149.5345">
        <ele>158.754761</ele>
        <time>2012-05-24T18:11:04Z</time>
      </trkpt>
      <trkpt lat="-17.5763" lon="-149.53447">
        <ele>158.754761</ele>
        <time>2012-05-24T18:11:12Z</time>
      </trkpt>
      <trkpt lat="-17.57668" lon="-149.53452">
        <ele>160.67749</ele>
        <time>2012-05-24T18:11:32Z</time>
      </trkpt>
      <trkpt lat="-17.57711" lon="-149.5347">
        <ele>162.600098</ele>
        <time>2012-05-24T18:11:53Z</time>
      </trkpt>
      <trkpt lat="-17.57721" lon="-149.53476">
        <ele>164.042114</ele>
        <time>2012-05-24T18:12:10Z</time>
      </trkpt>
      <trkpt lat="-17.57732" lon="-149.5347">
        <ele>165.484131</ele>
        <time>2012-05-24T18:12:30Z</time>
      </trkpt>
      <trkpt lat="-17.57738" lon="-149.53465">
        <ele>166.926025</ele>
        <time>2012-05-24T18:12:39Z</time>
      </trkpt>
      <trkpt lat="-17.57751" lon="-149.53461">
        <ele>167.887329</ele>
        <time>2012-05-24T18:12:50Z</time>
      </trkpt>
      <trkpt lat="-17.5776" lon="-149.53454">
        <ele>168.368042</ele>
        <time>2012-05-24T18:13:02Z</time>
      </trkpt>
      <trkpt lat="-17.57769" lon="-149.53454">
        <ele>168.848755</ele>
        <time>2012-05-24T18:13:12Z</time>
      </trkpt>
      <trkpt lat="-17.57779" lon="-149.53451">
        <ele>169.329468</ele>
        <time>2012-05-24T18:13:24Z</time>
      </trkpt>
      <trkpt lat="-17.57782" lon="-149.53446">
        <ele>169.810059</ele>
        <time>2012-05-24T18:13:31Z</time>
      </trkpt>
      <trkpt lat="-17.57794" lon="-149.5345">
        <ele>170.771362</ele>
        <time>2012-05-24T18:13:40Z</time>
      </trkpt>
      <trkpt lat="-17.5779" lon="-149.53443">
        <ele>170.771362</ele>
        <time>2012-05-24T18:13:44Z</time>
      </trkpt>
      <trkpt lat="-17.57805" lon="-149.53445">
        <ele>171.252075</ele>
        <time>2012-05-24T18:13:55Z</time>
      </trkpt>
      <trkpt lat="-17.57816" lon="-149.53439">
        <ele>171.732666</ele>
        <time>2012-05-24T18:14:05Z</time>
      </trkpt>
      <trkpt lat="-17.57829" lon="-149.53447">
        <ele>172.213257</ele>
        <time>2012-05-24T18:14:10Z</time>
      </trkpt>
      <trkpt lat="-17.57858" lon="-149.53458">
        <ele>173.174683</ele>
        <time>2012-05-24T18:14:23Z</time>
      </trkpt>
      <trkpt lat="-17.57859" lon="-149.53457">
        <ele>173.655273</ele>
        <time>2012-05-24T18:14:24Z</time>
      </trkpt>
      <trkpt lat="-17.57865" lon="-149.5345">
        <ele>173.655273</ele>
        <time>2012-05-24T18:14:32Z</time>
      </trkpt>
      <trkpt lat="-17.57886" lon="-149.53451">
        <ele>174.616577</ele>
        <time>2012-05-24T18:14:46Z</time>
      </trkpt>
      <trkpt lat="-17.57898" lon="-149.53449">
        <ele>175.09729</ele>
        <time>2012-05-24T18:14:57Z</time>
      </trkpt>
      <trkpt lat="-17.57907" lon="-149.53446">
        <ele>176.058594</ele>
        <time>2012-05-24T18:15:09Z</time>
      </trkpt>
      <trkpt lat="-17.57905" lon="-149.53442">
        <ele>175.577881</ele>
        <time>2012-05-24T18:15:11Z</time>
      </trkpt>
      <trkpt lat="-17.57911" lon="-149.53433">
        <ele>176.058594</ele>
        <time>2012-05-24T18:15:20Z</time>
      </trkpt>
      <trkpt lat="-17.57923" lon="-149.53432">
        <ele>176.539307</ele>
        <time>2012-05-24T18:15:30Z</time>
      </trkpt>
      <trkpt lat="-17.57936" lon="-149.5343">
        <ele>177.02002</ele>
        <time>2012-05-24T18:15:40Z</time>
      </trkpt>
      <trkpt lat="-17.57952" lon="-149.5343">
        <ele>177.02002</ele>
        <time>2012-05-24T18:15:51Z</time>
      </trkpt>
      <trkpt lat="-17.57956" lon="-149.53428">
        <ele>177.02002</ele>
        <time>2012-05-24T18:15:54Z</time>
      </trkpt>
      <trkpt lat="-17.57974" lon="-149.53426">
        <ele>177.50061</ele>
        <time>2012-05-24T18:16:06Z</time>
      </trkpt>
      <trkpt lat="-17.57983" lon="-149.53425">
        <ele>177.981201</ele>
        <time>2012-05-24T18:16:12Z</time>
      </trkpt>
      <trkpt lat="-17.57985" lon="-149.53411">
        <ele>178.461914</ele>
        <time>2012-05-24T18:16:21Z</time>
      </trkpt>
      <trkpt lat="-17.58003" lon="-149.53412">
        <ele>178.942627</ele>
        <time>2012-05-24T18:16:32Z</time>
      </trkpt>
      <trkpt lat="-17.58007" lon="-149.53412">
        <ele>179.903809</ele>
        <time>2012-05-24T18:16:34Z</time>
      </trkpt>
      <trkpt lat="-17.58014" lon="-149.53407">
        <ele>180.384521</ele>
        <time>2012-05-24T18:16:41Z</time>
      </trkpt>
      <trkpt lat="-17.58025" lon="-149.53393">
        <ele>180.865234</ele>
        <time>2012-05-24T18:16:54Z</time>
      </trkpt>
      <trkpt lat="-17.58031" lon="-149.53388">
        <ele>180.384521</ele>
        <time>2012-05-24T18:17:00Z</time>
      </trkpt>
      <trkpt lat="-17.58037" lon="-149.53388">
        <ele>180.865234</ele>
        <time>2012-05-24T18:17:03Z</time>
      </trkpt>
      <trkpt lat="-17.58042" lon="-149.53389">
        <ele>180.865234</ele>
        <time>2012-05-24T18:17:06Z</time>
      </trkpt>
      <trkpt lat="-17.58055" lon="-149.53393">
        <ele>180.865234</ele>
        <time>2012-05-24T18:17:11Z</time>
      </trkpt>
      <trkpt lat="-17.58076" lon="-149.53397">
        <ele>180.865234</ele>
        <time>2012-05-24T18:17:22Z</time>
      </trkpt>
      <trkpt lat="-17.58082" lon="-149.534">
        <ele>180.865234</ele>
        <time>2012-05-24T18:17:25Z</time>
      </trkpt>
      <trkpt lat="-17.58089" lon="-149.53388">
        <ele>181.826416</ele>
        <time>2012-05-24T18:17:36Z</time>
      </trkpt>
      <trkpt lat="-17.58101" lon="-149.53385">
        <ele>183.749023</ele>
        <time>2012-05-24T18:17:45Z</time>
      </trkpt>
      <trkpt lat="-17.58092" lon="-149.53365">
        <ele>184.229858</ele>
        <time>2012-05-24T18:17:50Z</time>
      </trkpt>
      <trkpt lat="-17.58091" lon="-149.53348">
        <ele>184.710571</ele>
        <time>2012-05-24T18:18:01Z</time>
      </trkpt>
      <trkpt lat="-17.58107" lon="-149.53352">
        <ele>184.710571</ele>
        <time>2012-05-24T18:18:10Z</time>
      </trkpt>
      <trkpt lat="-17.58144" lon="-149.53368">
        <ele>184.710571</ele>
        <time>2012-05-24T18:18:22Z</time>
      </trkpt>
      <trkpt lat="-17.58179" lon="-149.53379">
        <ele>185.191162</ele>
        <time>2012-05-24T18:18:36Z</time>
      </trkpt>
      <trkpt lat="-17.58217" lon="-149.53402">
        <ele>186.152466</ele>
        <time>2012-05-24T18:18:48Z</time>
      </trkpt>
      <trkpt lat="-17.58235" lon="-149.53403">
        <ele>187.11377</ele>
        <time>2012-05-24T18:19:00Z</time>
      </trkpt>
      <trkpt lat="-17.58246" lon="-149.53395">
        <ele>187.59436</ele>
        <time>2012-05-24T18:19:13Z</time>
      </trkpt>
      <trkpt lat="-17.58254" lon="-149.53394">
        <ele>188.555786</ele>
        <time>2012-05-24T18:19:20Z</time>
      </trkpt>
      <trkpt lat="-17.58256" lon="-149.53391">
        <ele>188.555786</ele>
        <time>2012-05-24T18:19:22Z</time>
      </trkpt>
      <trkpt lat="-17.58254" lon="-149.5337">
        <ele>188.555786</ele>
        <time>2012-05-24T18:19:32Z</time>
      </trkpt>
    </trkseg>
  </trk>
  <trk>
    <name><![CDATA[ACTIVE LOG 025]]></name>
    <trkseg>
      <trkpt lat="-17.58252" lon="-149.53319">
        <ele>188.555786</ele>
        <time>2012-05-24T18:19:59Z</time>
      </trkpt>
    </trkseg>
  </trk>
  <trk>
    <name><![CDATA[ACTIVE LOG 026]]></name>
    <trkseg>
      <trkpt lat="-17.58265" lon="-149.53272">
        <ele>188.555786</ele>
        <time>2012-05-24T18:20:47Z</time>
      </trkpt>
      <trkpt lat="-17.58231" lon="-149.53187">
        <ele>189.516968</ele>
        <time>2012-05-24T18:21:12Z</time>
      </trkpt>
      <trkpt lat="-17.58234" lon="-149.53179">
        <ele>189.516968</ele>
        <time>2012-05-24T18:21:20Z</time>
      </trkpt>
      <trkpt lat="-17.58233" lon="-149.53167">
        <ele>189.997681</ele>
        <time>2012-05-24T18:21:25Z</time>
      </trkpt>
      <trkpt lat="-17.58236" lon="-149.53159">
        <ele>189.997681</ele>
        <time>2012-05-24T18:21:30Z</time>
      </trkpt>
      <trkpt lat="-17.58238" lon="-149.5315">
        <ele>190.958984</ele>
        <time>2012-05-24T18:21:36Z</time>
      </trkpt>
      <trkpt lat="-17.58239" lon="-149.53147">
        <ele>191.439575</ele>
        <time>2012-05-24T18:21:38Z</time>
      </trkpt>
      <trkpt lat="-17.58249" lon="-149.53137">
        <ele>191.439575</ele>
        <time>2012-05-24T18:21:48Z</time>
      </trkpt>
      <trkpt lat="-17.58254" lon="-149.5313">
        <ele>192.881714</ele>
        <time>2012-05-24T18:21:55Z</time>
      </trkpt>
      <trkpt lat="-17.58258" lon="-149.53127">
        <ele>192.401123</ele>
        <time>2012-05-24T18:21:59Z</time>
      </trkpt>
      <trkpt lat="-17.58266" lon="-149.53123">
        <ele>191.920288</ele>
        <time>2012-05-24T18:22:06Z</time>
      </trkpt>
      <trkpt lat="-17.58273" lon="-149.53119">
        <ele>192.401123</ele>
        <time>2012-05-24T18:22:11Z</time>
      </trkpt>
      <trkpt lat="-17.58294" lon="-149.53107">
        <ele>192.881714</ele>
        <time>2012-05-24T18:22:29Z</time>
      </trkpt>
      <trkpt lat="-17.58295" lon="-149.53104">
        <ele>192.881714</ele>
        <time>2012-05-24T18:22:31Z</time>
      </trkpt>
      <trkpt lat="-17.58295" lon="-149.53092">
        <ele>192.401123</ele>
        <time>2012-05-24T18:22:36Z</time>
      </trkpt>
      <trkpt lat="-17.58292" lon="-149.53064">
        <ele>192.401123</ele>
        <time>2012-05-24T18:22:47Z</time>
      </trkpt>
      <trkpt lat="-17.58298" lon="-149.53046">
        <ele>193.362305</ele>
        <time>2012-05-24T18:22:58Z</time>
      </trkpt>
      <trkpt lat="-17.58297" lon="-149.53043">
        <ele>193.362305</ele>
        <time>2012-05-24T18:22:59Z</time>
      </trkpt>
      <trkpt lat="-17.58296" lon="-149.53008">
        <ele>193.362305</ele>
        <time>2012-05-24T18:23:11Z</time>
      </trkpt>
      <trkpt lat="-17.58303" lon="-149.53006">
        <ele>194.32373</ele>
        <time>2012-05-24T18:23:16Z</time>
      </trkpt>
      <trkpt lat="-17.58306" lon="-149.53001">
        <ele>193.843018</ele>
        <time>2012-05-24T18:23:20Z</time>
      </trkpt>
      <trkpt lat="-17.58309" lon="-149.52987">
        <ele>194.32373</ele>
        <time>2012-05-24T18:23:28Z</time>
      </trkpt>
      <trkpt lat="-17.58314" lon="-149.52989">
        <ele>194.804321</ele>
        <time>2012-05-24T18:23:30Z</time>
      </trkpt>
      <trkpt lat="-17.58315" lon="-149.52985">
        <ele>194.32373</ele>
        <time>2012-05-24T18:23:32Z</time>
      </trkpt>
      <trkpt lat="-17.58322" lon="-149.52962">
        <ele>195.284912</ele>
        <time>2012-05-24T18:23:45Z</time>
      </trkpt>
      <trkpt lat="-17.58339" lon="-149.52957">
        <ele>195.765625</ele>
        <time>2012-05-24T18:23:56Z</time>
      </trkpt>
      <trkpt lat="-17.58346" lon="-149.5296">
        <ele>196.246338</ele>
        <time>2012-05-24T18:24:00Z</time>
      </trkpt>
      <trkpt lat="-17.58364" lon="-149.52959">
        <ele>197.20752</ele>
        <time>2012-05-24T18:24:11Z</time>
      </trkpt>
      <trkpt lat="-17.58369" lon="-149.52953">
        <ele>197.688232</ele>
        <time>2012-05-24T18:24:19Z</time>
      </trkpt>
      <trkpt lat="-17.5839" lon="-149.5295">
        <ele>199.130127</ele>
        <time>2012-05-24T18:24:31Z</time>
      </trkpt>
      <trkpt lat="-17.58411" lon="-149.52951">
        <ele>200.572266</ele>
        <time>2012-05-24T18:24:43Z</time>
      </trkpt>
      <trkpt lat="-17.58419" lon="-149.52944">
        <ele>202.494873</ele>
        <time>2012-05-24T18:24:51Z</time>
      </trkpt>
      <trkpt lat="-17.58428" lon="-149.5293">
        <ele>202.975464</ele>
        <time>2012-05-24T18:25:04Z</time>
      </trkpt>
      <trkpt lat="-17.58433" lon="-149.52923">
        <ele>202.975464</ele>
        <time>2012-05-24T18:25:10Z</time>
      </trkpt>
      <trkpt lat="-17.58441" lon="-149.52925">
        <ele>202.975464</ele>
        <time>2012-05-24T18:25:15Z</time>
      </trkpt>
      <trkpt lat="-17.58462" lon="-149.52931">
        <ele>203.456177</ele>
        <time>2012-05-24T18:25:27Z</time>
      </trkpt>
      <trkpt lat="-17.58476" lon="-149.52932">
        <ele>203.456177</ele>
        <time>2012-05-24T18:25:34Z</time>
      </trkpt>
      <trkpt lat="-17.58491" lon="-149.5294">
        <ele>203.456177</ele>
        <time>2012-05-24T18:25:39Z</time>
      </trkpt>
      <trkpt lat="-17.5852" lon="-149.5296">
        <ele>203.456177</ele>
        <time>2012-05-24T18:25:51Z</time>
      </trkpt>
      <trkpt lat="-17.58537" lon="-149.52967">
        <ele>203.93689</ele>
        <time>2012-05-24T18:26:00Z</time>
      </trkpt>
      <trkpt lat="-17.58529" lon="-149.52954">
        <ele>204.898071</ele>
        <time>2012-05-24T18:26:02Z</time>
      </trkpt>
      <trkpt lat="-17.58525" lon="-149.52922">
        <ele>204.898071</ele>
        <time>2012-05-24T18:26:13Z</time>
      </trkpt>
      <trkpt lat="-17.5856" lon="-149.52942">
        <ele>205.378784</ele>
        <time>2012-05-24T18:26:24Z</time>
      </trkpt>
      <trkpt lat="-17.58562" lon="-149.52929">
        <ele>204.898071</ele>
        <time>2012-05-24T18:26:31Z</time>
      </trkpt>
      <trkpt lat="-17.58554" lon="-149.52909">
        <ele>204.41748</ele>
        <time>2012-05-24T18:26:35Z</time>
      </trkpt>
      <trkpt lat="-17.5857" lon="-149.5292">
        <ele>203.456177</ele>
        <time>2012-05-24T18:26:46Z</time>
      </trkpt>
      <trkpt lat="-17.58581" lon="-149.52934">
        <ele>203.456177</ele>
        <time>2012-05-24T18:26:50Z</time>
      </trkpt>
      <trkpt lat="-17.58594" lon="-149.52945">
        <ele>203.93689</ele>
        <time>2012-05-24T18:27:02Z</time>
      </trkpt>
      <trkpt lat="-17.58589" lon="-149.52949">
        <ele>204.41748</ele>
        <time>2012-05-24T18:27:14Z</time>
      </trkpt>
      <trkpt lat="-17.58586" lon="-149.5294">
        <ele>204.41748</ele>
        <time>2012-05-24T18:27:23Z</time>
      </trkpt>
      <trkpt lat="-17.58581" lon="-149.52931">
        <ele>207.301392</ele>
        <time>2012-05-24T18:27:35Z</time>
      </trkpt>
      <trkpt lat="-17.58561" lon="-149.5292">
        <ele>209.224121</ele>
        <time>2012-05-24T18:27:45Z</time>
      </trkpt>
      <trkpt lat="-17.58521" lon="-149.52882">
        <ele>212.588623</ele>
        <time>2012-05-24T18:27:56Z</time>
      </trkpt>
      <trkpt lat="-17.58509" lon="-149.52878">
        <ele>214.991943</ele>
        <time>2012-05-24T18:28:09Z</time>
      </trkpt>
      <trkpt lat="-17.58511" lon="-149.52876">
        <ele>216.914673</ele>
        <time>2012-05-24T18:28:20Z</time>
      </trkpt>
      <trkpt lat="-17.58516" lon="-149.5288">
        <ele>220.279175</ele>
        <time>2012-05-24T18:28:31Z</time>
      </trkpt>
      <trkpt lat="-17.5851" lon="-149.52867">
        <ele>223.643799</ele>
        <time>2012-05-24T18:28:50Z</time>
      </trkpt>
      <trkpt lat="-17.58517" lon="-149.52863">
        <ele>227.008545</ele>
        <time>2012-05-24T18:29:07Z</time>
      </trkpt>
      <trkpt lat="-17.58519" lon="-149.52857">
        <ele>228.931152</ele>
        <time>2012-05-24T18:29:15Z</time>
      </trkpt>
      <trkpt lat="-17.58528" lon="-149.52855">
        <ele>232.295776</ele>
        <time>2012-05-24T18:29:27Z</time>
      </trkpt>
      <trkpt lat="-17.58535" lon="-149.52856">
        <ele>235.660278</ele>
        <time>2012-05-24T18:29:44Z</time>
      </trkpt>
      <trkpt lat="-17.58539" lon="-149.52854">
        <ele>238.544312</ele>
        <time>2012-05-24T18:29:57Z</time>
      </trkpt>
      <trkpt lat="-17.58556" lon="-149.52853">
        <ele>241.908936</ele>
        <time>2012-05-24T18:30:17Z</time>
      </trkpt>
      <trkpt lat="-17.58556" lon="-149.52852">
        <ele>242.870239</ele>
        <time>2012-05-24T18:30:19Z</time>
      </trkpt>
      <trkpt lat="-17.58566" lon="-149.52853">
        <ele>246.234863</ele>
        <time>2012-05-24T18:30:36Z</time>
      </trkpt>
      <trkpt lat="-17.58579" lon="-149.52843">
        <ele>249.118774</ele>
        <time>2012-05-24T18:30:58Z</time>
      </trkpt>
      <trkpt lat="-17.58573" lon="-149.52829">
        <ele>252.483398</ele>
        <time>2012-05-24T18:31:15Z</time>
      </trkpt>
      <trkpt lat="-17.58574" lon="-149.52827">
        <ele>255.36731</ele>
        <time>2012-05-24T18:31:26Z</time>
      </trkpt>
      <trkpt lat="-17.58586" lon="-149.52813">
        <ele>258.251343</ele>
        <time>2012-05-24T18:31:52Z</time>
      </trkpt>
      <trkpt lat="-17.58591" lon="-149.52809">
        <ele>261.615967</ele>
        <time>2012-05-24T18:32:13Z</time>
      </trkpt>
      <trkpt lat="-17.58593" lon="-149.52804">
        <ele>264.019287</ele>
        <time>2012-05-24T18:32:23Z</time>
      </trkpt>
      <trkpt lat="-17.58605" lon="-149.52796">
        <ele>267.383911</ele>
        <time>2012-05-24T18:32:45Z</time>
      </trkpt>
      <trkpt lat="-17.58623" lon="-149.52784">
        <ele>270.748413</ele>
        <time>2012-05-24T18:33:06Z</time>
      </trkpt>
      <trkpt lat="-17.5863" lon="-149.52775">
        <ele>272.671143</ele>
        <time>2012-05-24T18:33:22Z</time>
      </trkpt>
      <trkpt lat="-17.58641" lon="-149.5276">
        <ele>276.035645</ele>
        <time>2012-05-24T18:33:47Z</time>
      </trkpt>
      <trkpt lat="-17.58653" lon="-149.52748">
        <ele>277.477661</ele>
        <time>2012-05-24T18:34:03Z</time>
      </trkpt>
      <trkpt lat="-17.58659" lon="-149.52742">
        <ele>280.842407</ele>
        <time>2012-05-24T18:34:16Z</time>
      </trkpt>
      <trkpt lat="-17.5867" lon="-149.52742">
        <ele>283.245605</ele>
        <time>2012-05-24T18:34:29Z</time>
      </trkpt>
      <trkpt lat="-17.58685" lon="-149.52738">
        <ele>286.610229</ele>
        <time>2012-05-24T18:34:51Z</time>
      </trkpt>
      <trkpt lat="-17.58686" lon="-149.52737">
        <ele>287.571411</ele>
        <time>2012-05-24T18:34:54Z</time>
      </trkpt>
      <trkpt lat="-17.58692" lon="-149.52725">
        <ele>290.936157</ele>
        <time>2012-05-24T18:35:25Z</time>
      </trkpt>
      <trkpt lat="-17.58693" lon="-149.52724">
        <ele>292.858765</ele>
        <time>2012-05-24T18:35:30Z</time>
      </trkpt>
      <trkpt lat="-17.58694" lon="-149.52723">
        <ele>295.742676</ele>
        <time>2012-05-24T18:35:47Z</time>
      </trkpt>
      <trkpt lat="-17.58696" lon="-149.52721">
        <ele>295.742676</ele>
        <time>2012-05-24T18:35:49Z</time>
      </trkpt>
      <trkpt lat="-17.58703" lon="-149.5271">
        <ele>298.626709</ele>
        <time>2012-05-24T18:36:08Z</time>
      </trkpt>
      <trkpt lat="-17.58709" lon="-149.52708">
        <ele>301.51062</ele>
        <time>2012-05-24T18:36:27Z</time>
      </trkpt>
      <trkpt lat="-17.58711" lon="-149.52711">
        <ele>304.875244</ele>
        <time>2012-05-24T18:36:42Z</time>
      </trkpt>
      <trkpt lat="-17.5872" lon="-149.52715">
        <ele>307.278564</ele>
        <time>2012-05-24T18:36:56Z</time>
      </trkpt>
      <trkpt lat="-17.58737" lon="-149.52705">
        <ele>310.643066</ele>
        <time>2012-05-24T18:37:16Z</time>
      </trkpt>
      <trkpt lat="-17.5874" lon="-149.52698">
        <ele>311.604492</ele>
        <time>2012-05-24T18:37:25Z</time>
      </trkpt>
      <trkpt lat="-17.58743" lon="-149.52691">
        <ele>312.565796</ele>
        <time>2012-05-24T18:37:34Z</time>
      </trkpt>
      <trkpt lat="-17.58748" lon="-149.5268">
        <ele>312.565796</ele>
        <time>2012-05-24T18:37:48Z</time>
      </trkpt>
      <trkpt lat="-17.58753" lon="-149.5267">
        <ele>312.565796</ele>
        <time>2012-05-24T18:38:00Z</time>
      </trkpt>
    </trkseg>
  </trk>
  <trk>
    <name><![CDATA[ACTIVE LOG 027]]></name>
    <trkseg>
      <trkpt lat="-17.58765" lon="-149.52657">
        <ele>314.488403</ele>
        <time>2012-05-24T18:38:28Z</time>
      </trkpt>
    </trkseg>
  </trk>
  <trk>
    <name><![CDATA[ACTIVE LOG 028]]></name>
    <trkseg>
      <trkpt lat="-17.58769" lon="-149.52639">
        <ele>315.93042</ele>
        <time>2012-05-24T18:38:41Z</time>
      </trkpt>
      <trkpt lat="-17.58798" lon="-149.52638">
        <ele>316.891724</ele>
        <time>2012-05-24T18:38:53Z</time>
      </trkpt>
      <trkpt lat="-17.58809" lon="-149.52627">
        <ele>317.372437</ele>
        <time>2012-05-24T18:39:02Z</time>
      </trkpt>
      <trkpt lat="-17.58826" lon="-149.52621">
        <ele>320.737061</ele>
        <time>2012-05-24T18:39:22Z</time>
      </trkpt>
      <trkpt lat="-17.58833" lon="-149.52609">
        <ele>323.620972</ele>
        <time>2012-05-24T18:39:40Z</time>
      </trkpt>
      <trkpt lat="-17.58846" lon="-149.52598">
        <ele>326.985596</ele>
        <time>2012-05-24T18:39:58Z</time>
      </trkpt>
      <trkpt lat="-17.58853" lon="-149.52592">
        <ele>329.388916</ele>
        <time>2012-05-24T18:40:13Z</time>
      </trkpt>
      <trkpt lat="-17.58871" lon="-149.52587">
        <ele>330.830933</ele>
        <time>2012-05-24T18:40:34Z</time>
      </trkpt>
      <trkpt lat="-17.58884" lon="-149.5258">
        <ele>334.195435</ele>
        <time>2012-05-24T18:40:52Z</time>
      </trkpt>
      <trkpt lat="-17.58892" lon="-149.52575">
        <ele>335.637329</ele>
        <time>2012-05-24T18:41:03Z</time>
      </trkpt>
      <trkpt lat="-17.58899" lon="-149.52568">
        <ele>337.079468</ele>
        <time>2012-05-24T18:41:12Z</time>
      </trkpt>
      <trkpt lat="-17.58906" lon="-149.52564">
        <ele>337.560059</ele>
        <time>2012-05-24T18:41:22Z</time>
      </trkpt>
      <trkpt lat="-17.58915" lon="-149.52561">
        <ele>337.560059</ele>
        <time>2012-05-24T18:41:34Z</time>
      </trkpt>
      <trkpt lat="-17.58924" lon="-149.52556">
        <ele>335.637329</ele>
        <time>2012-05-24T18:41:45Z</time>
      </trkpt>
      <trkpt lat="-17.58941" lon="-149.52542">
        <ele>339.002075</ele>
        <time>2012-05-24T18:42:07Z</time>
      </trkpt>
      <trkpt lat="-17.58945" lon="-149.5254">
        <ele>339.963379</ele>
        <time>2012-05-24T18:42:19Z</time>
      </trkpt>
      <trkpt lat="-17.58954" lon="-149.52546">
        <ele>340.924683</ele>
        <time>2012-05-24T18:42:33Z</time>
      </trkpt>
      <trkpt lat="-17.58963" lon="-149.5255">
        <ele>341.885986</ele>
        <time>2012-05-24T18:42:44Z</time>
      </trkpt>
      <trkpt lat="-17.58975" lon="-149.52549">
        <ele>341.885986</ele>
        <time>2012-05-24T18:42:55Z</time>
      </trkpt>
      <trkpt lat="-17.58989" lon="-149.52552">
        <ele>341.885986</ele>
        <time>2012-05-24T18:43:06Z</time>
      </trkpt>
      <trkpt lat="-17.58997" lon="-149.52555">
        <ele>342.366699</ele>
        <time>2012-05-24T18:43:15Z</time>
      </trkpt>
      <trkpt lat="-17.59004" lon="-149.52558">
        <ele>343.808594</ele>
        <time>2012-05-24T18:43:29Z</time>
      </trkpt>
      <trkpt lat="-17.59009" lon="-149.52559">
        <ele>345.731323</ele>
        <time>2012-05-24T18:43:35Z</time>
      </trkpt>
      <trkpt lat="-17.59021" lon="-149.52559">
        <ele>348.615234</ele>
        <time>2012-05-24T18:43:49Z</time>
      </trkpt>
      <trkpt lat="-17.5904" lon="-149.52562">
        <ele>351.979858</ele>
        <time>2012-05-24T18:44:07Z</time>
      </trkpt>
      <trkpt lat="-17.59053" lon="-149.52561">
        <ele>351.979858</ele>
        <time>2012-05-24T18:44:22Z</time>
      </trkpt>
      <trkpt lat="-17.59066" lon="-149.52558">
        <ele>351.499146</ele>
        <time>2012-05-24T18:44:33Z</time>
      </trkpt>
      <trkpt lat="-17.5908" lon="-149.52552">
        <ele>350.537842</ele>
        <time>2012-05-24T18:44:46Z</time>
      </trkpt>
      <trkpt lat="-17.5909" lon="-149.52534">
        <ele>347.173218</ele>
        <time>2012-05-24T18:45:10Z</time>
      </trkpt>
      <trkpt lat="-17.59092" lon="-149.5253">
        <ele>345.731323</ele>
        <time>2012-05-24T18:45:16Z</time>
      </trkpt>
      <trkpt lat="-17.59098" lon="-149.52525">
        <ele>343.327881</ele>
        <time>2012-05-24T18:45:28Z</time>
      </trkpt>
      <trkpt lat="-17.59106" lon="-149.5252">
        <ele>342.366699</ele>
        <time>2012-05-24T18:45:40Z</time>
      </trkpt>
      <trkpt lat="-17.59117" lon="-149.52534">
        <ele>341.405273</ele>
        <time>2012-05-24T18:45:58Z</time>
      </trkpt>
      <trkpt lat="-17.59127" lon="-149.52536">
        <ele>340.924683</ele>
        <time>2012-05-24T18:46:09Z</time>
      </trkpt>
      <trkpt lat="-17.59148" lon="-149.52547">
        <ele>338.521484</ele>
        <time>2012-05-24T18:46:31Z</time>
      </trkpt>
    </trkseg>
  </trk>
  <trk>
    <name><![CDATA[ACTIVE LOG 029]]></name>
    <trkseg>
      <trkpt lat="-17.59159" lon="-149.52553">
        <ele>339.002075</ele>
        <time>2012-05-24T18:46:43Z</time>
      </trkpt>
      <trkpt lat="-17.59159" lon="-149.52553">
        <ele>342.366699</ele>
        <time>2012-05-24T18:48:08Z</time>
      </trkpt>
      <trkpt lat="-17.59159" lon="-149.52553">
        <ele>345.25061</ele>
        <time>2012-05-24T18:48:34Z</time>
      </trkpt>
      <trkpt lat="-17.59159" lon="-149.52553">
        <ele>347.173218</ele>
        <time>2012-05-24T18:48:37Z</time>
      </trkpt>
    </trkseg>
  </trk>
  <trk>
    <name><![CDATA[ACTIVE LOG 030]]></name>
    <trkseg>
      <trkpt lat="-17.59198" lon="-149.52609">
        <ele>349.095825</ele>
        <time>2012-05-24T18:49:49Z</time>
      </trkpt>
      <trkpt lat="-17.59199" lon="-149.52609">
        <ele>349.095825</ele>
        <time>2012-05-24T18:49:50Z</time>
      </trkpt>
      <trkpt lat="-17.59211" lon="-149.52616">
        <ele>349.576538</ele>
        <time>2012-05-24T18:50:03Z</time>
      </trkpt>
      <trkpt lat="-17.5922" lon="-149.52634">
        <ele>351.018433</ele>
        <time>2012-05-24T18:50:19Z</time>
      </trkpt>
      <trkpt lat="-17.59232" lon="-149.52638">
        <ele>352.941162</ele>
        <time>2012-05-24T18:50:31Z</time>
      </trkpt>
      <trkpt lat="-17.59242" lon="-149.5265">
        <ele>355.344482</ele>
        <time>2012-05-24T18:50:51Z</time>
      </trkpt>
      <trkpt lat="-17.59249" lon="-149.52649">
        <ele>358.228394</ele>
        <time>2012-05-24T18:51:01Z</time>
      </trkpt>
      <trkpt lat="-17.59254" lon="-149.52652">
        <ele>361.59314</ele>
        <time>2012-05-24T18:51:17Z</time>
      </trkpt>
      <trkpt lat="-17.59267" lon="-149.52656">
        <ele>364.476929</ele>
        <time>2012-05-24T18:51:36Z</time>
      </trkpt>
      <trkpt lat="-17.59268" lon="-149.52656">
        <ele>367.841553</ele>
        <time>2012-05-24T18:51:44Z</time>
      </trkpt>
      <trkpt lat="-17.59278" lon="-149.52657">
        <ele>370.725586</ele>
        <time>2012-05-24T18:52:00Z</time>
      </trkpt>
      <trkpt lat="-17.59285" lon="-149.52658">
        <ele>373.128906</ele>
        <time>2012-05-24T18:52:13Z</time>
      </trkpt>
      <trkpt lat="-17.59293" lon="-149.5266">
        <ele>376.012817</ele>
        <time>2012-05-24T18:52:30Z</time>
      </trkpt>
      <trkpt lat="-17.59303" lon="-149.52661">
        <ele>378.896851</ele>
        <time>2012-05-24T18:52:45Z</time>
      </trkpt>
      <trkpt lat="-17.59309" lon="-149.52662">
        <ele>380.819458</ele>
        <time>2012-05-24T18:52:58Z</time>
      </trkpt>
      <trkpt lat="-17.59317" lon="-149.52662">
        <ele>383.222656</ele>
        <time>2012-05-24T18:53:14Z</time>
      </trkpt>
      <trkpt lat="-17.5932" lon="-149.52663">
        <ele>383.703247</ele>
        <time>2012-05-24T18:53:20Z</time>
      </trkpt>
      <trkpt lat="-17.5933" lon="-149.52663">
        <ele>388.51001</ele>
        <time>2012-05-24T18:53:39Z</time>
      </trkpt>
      <trkpt lat="-17.59343" lon="-149.52676">
        <ele>389.471191</ele>
        <time>2012-05-24T18:53:54Z</time>
      </trkpt>
      <trkpt lat="-17.59362" lon="-149.52683">
        <ele>391.874512</ele>
        <time>2012-05-24T18:54:10Z</time>
      </trkpt>
      <trkpt lat="-17.5937" lon="-149.52684">
        <ele>394.758545</ele>
        <time>2012-05-24T18:54:22Z</time>
      </trkpt>
      <trkpt lat="-17.59374" lon="-149.52684">
        <ele>397.642456</ele>
        <time>2012-05-24T18:54:33Z</time>
      </trkpt>
      <trkpt lat="-17.59385" lon="-149.52691">
        <ele>400.526489</ele>
        <time>2012-05-24T18:54:45Z</time>
      </trkpt>
      <trkpt lat="-17.59395" lon="-149.52689">
        <ele>401.968506</ele>
        <time>2012-05-24T18:54:52Z</time>
      </trkpt>
      <trkpt lat="-17.59411" lon="-149.52682">
        <ele>405.813721</ele>
        <time>2012-05-24T18:55:07Z</time>
      </trkpt>
      <trkpt lat="-17.5942" lon="-149.52671">
        <ele>408.217041</ele>
        <time>2012-05-24T18:55:16Z</time>
      </trkpt>
      <trkpt lat="-17.59421" lon="-149.5267">
        <ele>408.217041</ele>
        <time>2012-05-24T18:55:17Z</time>
      </trkpt>
      <trkpt lat="-17.59422" lon="-149.5267">
        <ele>408.697632</ele>
        <time>2012-05-24T18:55:18Z</time>
      </trkpt>
      <trkpt lat="-17.5943" lon="-149.52662">
        <ele>410.139648</ele>
        <time>2012-05-24T18:55:26Z</time>
      </trkpt>
      <trkpt lat="-17.59435" lon="-149.52656">
        <ele>411.100952</ele>
        <time>2012-05-24T18:55:34Z</time>
      </trkpt>
      <trkpt lat="-17.5944" lon="-149.52652">
        <ele>413.984863</ele>
        <time>2012-05-24T18:55:41Z</time>
      </trkpt>
      <trkpt lat="-17.59448" lon="-149.52645">
        <ele>415.907471</ele>
        <time>2012-05-24T18:55:51Z</time>
      </trkpt>
      <trkpt lat="-17.59453" lon="-149.52645">
        <ele>416.388184</ele>
        <time>2012-05-24T18:55:54Z</time>
      </trkpt>
      <trkpt lat="-17.59459" lon="-149.52634">
        <ele>418.791504</ele>
        <time>2012-05-24T18:56:04Z</time>
      </trkpt>
      <trkpt lat="-17.59459" lon="-149.52614">
        <ele>420.233398</ele>
        <time>2012-05-24T18:56:20Z</time>
      </trkpt>
      <trkpt lat="-17.59464" lon="-149.52611">
        <ele>423.117432</ele>
        <time>2012-05-24T18:56:35Z</time>
      </trkpt>
      <trkpt lat="-17.59467" lon="-149.52594">
        <ele>426.482056</ele>
        <time>2012-05-24T18:57:04Z</time>
      </trkpt>
      <trkpt lat="-17.5947" lon="-149.52595">
        <ele>428.885376</ele>
        <time>2012-05-24T18:57:11Z</time>
      </trkpt>
      <trkpt lat="-17.59477" lon="-149.52593">
        <ele>431.288574</ele>
        <time>2012-05-24T18:57:19Z</time>
      </trkpt>
      <trkpt lat="-17.59481" lon="-149.52585">
        <ele>434.172607</ele>
        <time>2012-05-24T18:57:31Z</time>
      </trkpt>
      <trkpt lat="-17.59485" lon="-149.52574">
        <ele>438.017822</ele>
        <time>2012-05-24T18:57:45Z</time>
      </trkpt>
      <trkpt lat="-17.59486" lon="-149.52573">
        <ele>438.017822</ele>
        <time>2012-05-24T18:57:46Z</time>
      </trkpt>
      <trkpt lat="-17.59486" lon="-149.5257">
        <ele>438.498535</ele>
        <time>2012-05-24T18:57:49Z</time>
      </trkpt>
      <trkpt lat="-17.59502" lon="-149.52558">
        <ele>441.382446</ele>
        <time>2012-05-24T18:58:13Z</time>
      </trkpt>
      <trkpt lat="-17.59503" lon="-149.52553">
        <ele>441.382446</ele>
        <time>2012-05-24T18:58:31Z</time>
      </trkpt>
      <trkpt lat="-17.59501" lon="-149.5255">
        <ele>441.863159</ele>
        <time>2012-05-24T18:58:48Z</time>
      </trkpt>
      <trkpt lat="-17.59491" lon="-149.52544">
        <ele>440.421265</ele>
        <time>2012-05-24T18:59:26Z</time>
      </trkpt>
      <trkpt lat="-17.59487" lon="-149.52538">
        <ele>440.421265</ele>
        <time>2012-05-24T18:59:42Z</time>
      </trkpt>
      <trkpt lat="-17.59485" lon="-149.52537">
        <ele>440.901855</ele>
        <time>2012-05-24T19:00:43Z</time>
      </trkpt>
      <trkpt lat="-17.59466" lon="-149.52499">
        <ele>440.901855</ele>
        <time>2012-05-24T19:01:05Z</time>
      </trkpt>
      <trkpt lat="-17.59465" lon="-149.52497">
        <ele>441.382446</ele>
        <time>2012-05-24T19:01:18Z</time>
      </trkpt>
      <trkpt lat="-17.59458" lon="-149.52482">
        <ele>442.343872</ele>
        <time>2012-05-24T19:01:33Z</time>
      </trkpt>
      <trkpt lat="-17.59468" lon="-149.52503">
        <ele>442.343872</ele>
        <time>2012-05-24T19:01:42Z</time>
      </trkpt>
      <trkpt lat="-17.59481" lon="-149.52526">
        <ele>442.343872</ele>
        <time>2012-05-24T19:02:00Z</time>
      </trkpt>
      <trkpt lat="-17.59476" lon="-149.52544">
        <ele>443.305054</ele>
        <time>2012-05-24T19:02:58Z</time>
      </trkpt>
      <trkpt lat="-17.59504" lon="-149.52565">
        <ele>442.824463</ele>
        <time>2012-05-24T19:04:14Z</time>
      </trkpt>
      <trkpt lat="-17.59489" lon="-149.52533">
        <ele>445.708374</ele>
        <time>2012-05-24T19:05:01Z</time>
      </trkpt>
      <trkpt lat="-17.59488" lon="-149.52534">
        <ele>448.111816</ele>
        <time>2012-05-24T19:05:20Z</time>
      </trkpt>
      <trkpt lat="-17.59485" lon="-149.5253">
        <ele>450.515015</ele>
        <time>2012-05-24T19:05:25Z</time>
      </trkpt>
      <trkpt lat="-17.59483" lon="-149.52526">
        <ele>453.879639</ele>
        <time>2012-05-24T19:05:57Z</time>
      </trkpt>
      <trkpt lat="-17.59472" lon="-149.5253">
        <ele>456.282959</ele>
        <time>2012-05-24T19:06:30Z</time>
      </trkpt>
      <trkpt lat="-17.59466" lon="-149.52539">
        <ele>459.16687</ele>
        <time>2012-05-24T19:06:56Z</time>
      </trkpt>
      <trkpt lat="-17.59463" lon="-149.52537">
        <ele>460.128174</ele>
        <time>2012-05-24T19:06:58Z</time>
      </trkpt>
      <trkpt lat="-17.59456" lon="-149.52542">
        <ele>463.012085</ele>
        <time>2012-05-24T19:07:15Z</time>
      </trkpt>
      <trkpt lat="-17.59445" lon="-149.52533">
        <ele>465.896118</ele>
        <time>2012-05-24T19:07:28Z</time>
      </trkpt>
      <trkpt lat="-17.59442" lon="-149.5253">
        <ele>467.338135</ele>
        <time>2012-05-24T19:07:34Z</time>
      </trkpt>
      <trkpt lat="-17.59442" lon="-149.52531">
        <ele>468.299316</ele>
        <time>2012-05-24T19:07:39Z</time>
      </trkpt>
      <trkpt lat="-17.59455" lon="-149.52521">
        <ele>471.66394</ele>
        <time>2012-05-24T19:08:04Z</time>
      </trkpt>
      <trkpt lat="-17.59463" lon="-149.52506">
        <ele>474.547974</ele>
        <time>2012-05-24T19:08:27Z</time>
      </trkpt>
      <trkpt lat="-17.59468" lon="-149.52497">
        <ele>477.912476</ele>
        <time>2012-05-24T19:09:00Z</time>
      </trkpt>
      <trkpt lat="-17.59467" lon="-149.52493">
        <ele>478.873901</ele>
        <time>2012-05-24T19:09:06Z</time>
      </trkpt>
      <trkpt lat="-17.59468" lon="-149.52493">
        <ele>477.431885</ele>
        <time>2012-05-24T19:09:09Z</time>
      </trkpt>
      <trkpt lat="-17.59468" lon="-149.52486">
        <ele>479.354492</ele>
        <time>2012-05-24T19:09:18Z</time>
      </trkpt>
      <trkpt lat="-17.5947" lon="-149.52482">
        <ele>480.315918</ele>
        <time>2012-05-24T19:09:22Z</time>
      </trkpt>
      <trkpt lat="-17.59475" lon="-149.52474">
        <ele>480.315918</ele>
        <time>2012-05-24T19:09:32Z</time>
      </trkpt>
      <trkpt lat="-17.59478" lon="-149.52466">
        <ele>480.796631</ele>
        <time>2012-05-24T19:09:41Z</time>
      </trkpt>
      <trkpt lat="-17.59488" lon="-149.5246">
        <ele>482.719238</ele>
        <time>2012-05-24T19:09:53Z</time>
      </trkpt>
      <trkpt lat="-17.59496" lon="-149.52454">
        <ele>484.161133</ele>
        <time>2012-05-24T19:10:15Z</time>
      </trkpt>
      <trkpt lat="-17.59498" lon="-149.52451">
        <ele>484.641846</ele>
        <time>2012-05-24T19:10:19Z</time>
      </trkpt>
      <trkpt lat="-17.59509" lon="-149.52446">
        <ele>487.525635</ele>
        <time>2012-05-24T19:10:29Z</time>
      </trkpt>
      <trkpt lat="-17.59516" lon="-149.52443">
        <ele>489.448364</ele>
        <time>2012-05-24T19:10:36Z</time>
      </trkpt>
      <trkpt lat="-17.59526" lon="-149.52435">
        <ele>489.448364</ele>
        <time>2012-05-24T19:10:47Z</time>
      </trkpt>
      <trkpt lat="-17.59538" lon="-149.52427">
        <ele>492.812988</ele>
        <time>2012-05-24T19:11:01Z</time>
      </trkpt>
      <trkpt lat="-17.59543" lon="-149.52423">
        <ele>494.735596</ele>
        <time>2012-05-24T19:11:10Z</time>
      </trkpt>
      <trkpt lat="-17.59555" lon="-149.52407">
        <ele>496.177734</ele>
        <time>2012-05-24T19:11:37Z</time>
      </trkpt>
      <trkpt lat="-17.59564" lon="-149.52399">
        <ele>498.580933</ele>
        <time>2012-05-24T19:11:51Z</time>
      </trkpt>
      <trkpt lat="-17.59572" lon="-149.52394">
        <ele>501.945557</ele>
        <time>2012-05-24T19:12:06Z</time>
      </trkpt>
      <trkpt lat="-17.59581" lon="-149.52383">
        <ele>503.868164</ele>
        <time>2012-05-24T19:12:26Z</time>
      </trkpt>
      <trkpt lat="-17.59593" lon="-149.52377">
        <ele>505.790894</ele>
        <time>2012-05-24T19:12:43Z</time>
      </trkpt>
      <trkpt lat="-17.59596" lon="-149.52377">
        <ele>507.232788</ele>
        <time>2012-05-24T19:12:46Z</time>
      </trkpt>
      <trkpt lat="-17.59602" lon="-149.5237">
        <ele>505.790894</ele>
        <time>2012-05-24T19:13:00Z</time>
      </trkpt>
      <trkpt lat="-17.59608" lon="-149.5235">
        <ele>508.194092</ele>
        <time>2012-05-24T19:13:18Z</time>
      </trkpt>
      <trkpt lat="-17.59619" lon="-149.52332">
        <ele>507.713501</ele>
        <time>2012-05-24T19:14:41Z</time>
      </trkpt>
      <trkpt lat="-17.5962" lon="-149.52326">
        <ele>507.232788</ele>
        <time>2012-05-24T19:15:12Z</time>
      </trkpt>
      <trkpt lat="-17.59623" lon="-149.52324">
        <ele>508.194092</ele>
        <time>2012-05-24T19:15:38Z</time>
      </trkpt>
      <trkpt lat="-17.59638" lon="-149.52312">
        <ele>507.713501</ele>
        <time>2012-05-24T19:15:58Z</time>
      </trkpt>
      <trkpt lat="-17.59648" lon="-149.52301">
        <ele>508.674683</ele>
        <time>2012-05-24T19:16:13Z</time>
      </trkpt>
      <trkpt lat="-17.59655" lon="-149.52294">
        <ele>508.194092</ele>
        <time>2012-05-24T19:16:26Z</time>
      </trkpt>
      <trkpt lat="-17.59661" lon="-149.5228">
        <ele>506.271484</ele>
        <time>2012-05-24T19:16:41Z</time>
      </trkpt>
      <trkpt lat="-17.59662" lon="-149.52264">
        <ele>504.829468</ele>
        <time>2012-05-24T19:17:04Z</time>
      </trkpt>
      <trkpt lat="-17.59661" lon="-149.52258">
        <ele>504.348877</ele>
        <time>2012-05-24T19:17:32Z</time>
      </trkpt>
      <trkpt lat="-17.59669" lon="-149.52254">
        <ele>502.426147</ele>
        <time>2012-05-24T19:17:54Z</time>
      </trkpt>
      <trkpt lat="-17.59687" lon="-149.52249">
        <ele>501.464844</ele>
        <time>2012-05-24T19:18:16Z</time>
      </trkpt>
      <trkpt lat="-17.59697" lon="-149.5224">
        <ele>498.100342</ele>
        <time>2012-05-24T19:18:36Z</time>
      </trkpt>
      <trkpt lat="-17.59698" lon="-149.52225">
        <ele>495.216187</ele>
        <time>2012-05-24T19:19:06Z</time>
      </trkpt>
      <trkpt lat="-17.59706" lon="-149.52226">
        <ele>492.332397</ele>
        <time>2012-05-24T19:19:34Z</time>
      </trkpt>
      <trkpt lat="-17.59709" lon="-149.52227">
        <ele>489.929077</ele>
        <time>2012-05-24T19:19:49Z</time>
      </trkpt>
      <trkpt lat="-17.59708" lon="-149.52228">
        <ele>486.564453</ele>
        <time>2012-05-24T19:19:55Z</time>
      </trkpt>
      <trkpt lat="-17.59705" lon="-149.52234">
        <ele>483.68042</ele>
        <time>2012-05-24T19:20:34Z</time>
      </trkpt>
      <trkpt lat="-17.59701" lon="-149.52235">
        <ele>481.757812</ele>
        <time>2012-05-24T19:20:39Z</time>
      </trkpt>
      <trkpt lat="-17.59695" lon="-149.52234">
        <ele>479.835083</ele>
        <time>2012-05-24T19:20:59Z</time>
      </trkpt>
      <trkpt lat="-17.59696" lon="-149.52243">
        <ele>479.354492</ele>
        <time>2012-05-24T19:21:15Z</time>
      </trkpt>
      <trkpt lat="-17.59702" lon="-149.52257">
        <ele>479.354492</ele>
        <time>2012-05-24T19:22:24Z</time>
      </trkpt>
      <trkpt lat="-17.59695" lon="-149.52261">
        <ele>479.835083</ele>
        <time>2012-05-24T19:22:52Z</time>
      </trkpt>
      <trkpt lat="-17.59693" lon="-149.52265">
        <ele>483.199829</ele>
        <time>2012-05-24T19:23:06Z</time>
      </trkpt>
      <trkpt lat="-17.5969" lon="-149.52275">
        <ele>486.564453</ele>
        <time>2012-05-24T19:23:27Z</time>
      </trkpt>
      <trkpt lat="-17.5969" lon="-149.52275">
        <ele>486.564453</ele>
        <time>2012-05-24T19:23:28Z</time>
      </trkpt>
      <trkpt lat="-17.59693" lon="-149.52283">
        <ele>487.525635</ele>
        <time>2012-05-24T19:24:09Z</time>
      </trkpt>
      <trkpt lat="-17.5969" lon="-149.52289">
        <ele>484.161133</ele>
        <time>2012-05-24T19:24:33Z</time>
      </trkpt>
      <trkpt lat="-17.59689" lon="-149.52287">
        <ele>480.796631</ele>
        <time>2012-05-24T19:24:59Z</time>
      </trkpt>
      <trkpt lat="-17.59684" lon="-149.52287">
        <ele>478.393188</ele>
        <time>2012-05-24T19:25:34Z</time>
      </trkpt>
      <trkpt lat="-17.59678" lon="-149.52291">
        <ele>476.951294</ele>
        <time>2012-05-24T19:26:20Z</time>
      </trkpt>
      <trkpt lat="-17.5968" lon="-149.52296">
        <ele>477.431885</ele>
        <time>2012-05-24T19:26:44Z</time>
      </trkpt>
      <trkpt lat="-17.59685" lon="-149.52303">
        <ele>477.912476</ele>
        <time>2012-05-24T19:27:01Z</time>
      </trkpt>
      <trkpt lat="-17.59678" lon="-149.52303">
        <ele>477.431885</ele>
        <time>2012-05-24T19:27:14Z</time>
      </trkpt>
      <trkpt lat="-17.59675" lon="-149.5231">
        <ele>477.912476</ele>
        <time>2012-05-24T19:27:30Z</time>
      </trkpt>
      <trkpt lat="-17.59682" lon="-149.52317">
        <ele>476.470581</ele>
        <time>2012-05-24T19:27:44Z</time>
      </trkpt>
      <trkpt lat="-17.59682" lon="-149.5232">
        <ele>476.951294</ele>
        <time>2012-05-24T19:28:00Z</time>
      </trkpt>
      <trkpt lat="-17.5968" lon="-149.52318">
        <ele>476.951294</ele>
        <time>2012-05-24T19:28:02Z</time>
      </trkpt>
      <trkpt lat="-17.59672" lon="-149.5231">
        <ele>477.431885</ele>
        <time>2012-05-24T19:28:22Z</time>
      </trkpt>
      <trkpt lat="-17.59665" lon="-149.5231">
        <ele>477.431885</ele>
        <time>2012-05-24T19:28:44Z</time>
      </trkpt>
      <trkpt lat="-17.59661" lon="-149.52314">
        <ele>477.431885</ele>
        <time>2012-05-24T19:28:58Z</time>
      </trkpt>
      <trkpt lat="-17.59663" lon="-149.5232">
        <ele>477.431885</ele>
        <time>2012-05-24T19:29:21Z</time>
      </trkpt>
      <trkpt lat="-17.5966" lon="-149.52313">
        <ele>477.912476</ele>
        <time>2012-05-24T19:29:31Z</time>
      </trkpt>
      <trkpt lat="-17.59665" lon="-149.52325">
        <ele>479.354492</ele>
        <time>2012-05-24T19:29:52Z</time>
      </trkpt>
      <trkpt lat="-17.59669" lon="-149.52324">
        <ele>479.354492</ele>
        <time>2012-05-24T19:30:05Z</time>
      </trkpt>
      <trkpt lat="-17.59667" lon="-149.52335">
        <ele>479.835083</ele>
        <time>2012-05-24T19:30:29Z</time>
      </trkpt>
      <trkpt lat="-17.59664" lon="-149.52338">
        <ele>479.354492</ele>
        <time>2012-05-24T19:30:46Z</time>
      </trkpt>
      <trkpt lat="-17.59657" lon="-149.52335">
        <ele>478.873901</ele>
        <time>2012-05-24T19:30:59Z</time>
      </trkpt>
      <trkpt lat="-17.59652" lon="-149.52337">
        <ele>478.873901</ele>
        <time>2012-05-24T19:31:11Z</time>
      </trkpt>
      <trkpt lat="-17.59655" lon="-149.52354">
        <ele>479.354492</ele>
        <time>2012-05-24T19:31:32Z</time>
      </trkpt>
      <trkpt lat="-17.59654" lon="-149.52354">
        <ele>478.873901</ele>
        <time>2012-05-24T19:31:47Z</time>
      </trkpt>
      <trkpt lat="-17.59664" lon="-149.52357">
        <ele>476.470581</ele>
        <time>2012-05-24T19:32:25Z</time>
      </trkpt>
      <trkpt lat="-17.59666" lon="-149.52363">
        <ele>476.470581</ele>
        <time>2012-05-24T19:32:55Z</time>
      </trkpt>
      <trkpt lat="-17.59664" lon="-149.5236">
        <ele>476.951294</ele>
        <time>2012-05-24T19:33:10Z</time>
      </trkpt>
      <trkpt lat="-17.59666" lon="-149.5237">
        <ele>479.354492</ele>
        <time>2012-05-24T19:34:03Z</time>
      </trkpt>
      <trkpt lat="-17.59664" lon="-149.52374">
        <ele>479.835083</ele>
        <time>2012-05-24T19:34:19Z</time>
      </trkpt>
      <trkpt lat="-17.59678" lon="-149.5238">
        <ele>478.873901</ele>
        <time>2012-05-24T19:34:33Z</time>
      </trkpt>
      <trkpt lat="-17.59677" lon="-149.52385">
        <ele>479.835083</ele>
        <time>2012-05-24T19:34:46Z</time>
      </trkpt>
      <trkpt lat="-17.59677" lon="-149.52393">
        <ele>475.509277</ele>
        <time>2012-05-24T19:35:51Z</time>
      </trkpt>
      <trkpt lat="-17.59677" lon="-149.52392">
        <ele>478.873901</ele>
        <time>2012-05-24T19:35:52Z</time>
      </trkpt>
      <trkpt lat="-17.59681" lon="-149.52381">
        <ele>478.873901</ele>
        <time>2012-05-24T19:36:29Z</time>
      </trkpt>
      <trkpt lat="-17.59677" lon="-149.5238">
        <ele>479.354492</ele>
        <time>2012-05-24T19:38:37Z</time>
      </trkpt>
      <trkpt lat="-17.59678" lon="-149.5239">
        <ele>480.315918</ele>
        <time>2012-05-24T19:39:44Z</time>
      </trkpt>
      <trkpt lat="-17.59673" lon="-149.52383">
        <ele>483.199829</ele>
        <time>2012-05-24T19:42:02Z</time>
      </trkpt>
      <trkpt lat="-17.59673" lon="-149.52383">
        <ele>481.757812</ele>
        <time>2012-05-24T19:42:05Z</time>
      </trkpt>
      <trkpt lat="-17.59673" lon="-149.52387">
        <ele>485.122437</ele>
        <time>2012-05-24T19:43:35Z</time>
      </trkpt>
      <trkpt lat="-17.59668" lon="-149.52387">
        <ele>484.641846</ele>
        <time>2012-05-24T19:44:08Z</time>
      </trkpt>
      <trkpt lat="-17.59675" lon="-149.52385">
        <ele>488.00647</ele>
        <time>2012-05-24T19:45:50Z</time>
      </trkpt>
      <trkpt lat="-17.59676" lon="-149.52386">
        <ele>484.641846</ele>
        <time>2012-05-24T19:45:55Z</time>
      </trkpt>
      <trkpt lat="-17.59677" lon="-149.52386">
        <ele>488.00647</ele>
        <time>2012-05-24T19:45:56Z</time>
      </trkpt>
      <trkpt lat="-17.59675" lon="-149.52388">
        <ele>486.08374</ele>
        <time>2012-05-24T19:46:24Z</time>
      </trkpt>
      <trkpt lat="-17.59678" lon="-149.52378">
        <ele>486.08374</ele>
        <time>2012-05-24T19:46:46Z</time>
      </trkpt>
      <trkpt lat="-17.59678" lon="-149.5237">
        <ele>485.603027</ele>
        <time>2012-05-24T19:47:12Z</time>
      </trkpt>
      <trkpt lat="-17.59675" lon="-149.52376">
        <ele>485.603027</ele>
        <time>2012-05-24T19:47:39Z</time>
      </trkpt>
      <trkpt lat="-17.59679" lon="-149.5237">
        <ele>487.525635</ele>
        <time>2012-05-24T19:49:23Z</time>
      </trkpt>
      <trkpt lat="-17.59673" lon="-149.52369">
        <ele>487.045044</ele>
        <time>2012-05-24T19:49:53Z</time>
      </trkpt>
      <trkpt lat="-17.59672" lon="-149.52366">
        <ele>487.045044</ele>
        <time>2012-05-24T19:50:45Z</time>
      </trkpt>
      <trkpt lat="-17.59673" lon="-149.52372">
        <ele>487.045044</ele>
        <time>2012-05-24T19:51:02Z</time>
      </trkpt>
      <trkpt lat="-17.59671" lon="-149.52362">
        <ele>491.370972</ele>
        <time>2012-05-24T19:52:28Z</time>
      </trkpt>
      <trkpt lat="-17.59668" lon="-149.52366">
        <ele>488.00647</ele>
        <time>2012-05-24T19:52:36Z</time>
      </trkpt>
      <trkpt lat="-17.59665" lon="-149.52368">
        <ele>489.448364</ele>
        <time>2012-05-24T19:52:48Z</time>
      </trkpt>
      <trkpt lat="-17.59664" lon="-149.52366">
        <ele>491.851685</ele>
        <time>2012-05-24T19:53:07Z</time>
      </trkpt>
      <trkpt lat="-17.59662" lon="-149.52363">
        <ele>493.293579</ele>
        <time>2012-05-24T19:53:15Z</time>
      </trkpt>
      <trkpt lat="-17.59662" lon="-149.52361">
        <ele>496.177734</ele>
        <time>2012-05-24T19:53:28Z</time>
      </trkpt>
      <trkpt lat="-17.59662" lon="-149.52358">
        <ele>498.580933</ele>
        <time>2012-05-24T19:53:43Z</time>
      </trkpt>
      <trkpt lat="-17.5966" lon="-149.52357">
        <ele>501.464844</ele>
        <time>2012-05-24T19:53:57Z</time>
      </trkpt>
      <trkpt lat="-17.59661" lon="-149.52359">
        <ele>504.829468</ele>
        <time>2012-05-24T19:54:25Z</time>
      </trkpt>
      <trkpt lat="-17.59661" lon="-149.52354">
        <ele>506.752075</ele>
        <time>2012-05-24T19:54:43Z</time>
      </trkpt>
      <trkpt lat="-17.59657" lon="-149.52356">
        <ele>508.674683</ele>
        <time>2012-05-24T19:55:23Z</time>
      </trkpt>
      <trkpt lat="-17.59657" lon="-149.52351">
        <ele>511.078003</ele>
        <time>2012-05-24T19:55:33Z</time>
      </trkpt>
      <trkpt lat="-17.59661" lon="-149.52354">
        <ele>511.558716</ele>
        <time>2012-05-24T19:55:58Z</time>
      </trkpt>
      <trkpt lat="-17.59654" lon="-149.52349">
        <ele>513.000732</ele>
        <time>2012-05-24T19:56:10Z</time>
      </trkpt>
      <trkpt lat="-17.59649" lon="-149.52352">
        <ele>514.442627</ele>
        <time>2012-05-24T19:56:24Z</time>
      </trkpt>
      <trkpt lat="-17.59643" lon="-149.52357">
        <ele>517.32666</ele>
        <time>2012-05-24T19:56:40Z</time>
      </trkpt>
      <trkpt lat="-17.59639" lon="-149.5236">
        <ele>520.691284</ele>
        <time>2012-05-24T19:56:56Z</time>
      </trkpt>
      <trkpt lat="-17.59632" lon="-149.52361">
        <ele>520.210571</ele>
        <time>2012-05-24T19:57:16Z</time>
      </trkpt>
      <trkpt lat="-17.59633" lon="-149.52361">
        <ele>522.133179</ele>
        <time>2012-05-24T19:57:40Z</time>
      </trkpt>
      <trkpt lat="-17.59632" lon="-149.52361">
        <ele>525.497803</ele>
        <time>2012-05-24T19:57:59Z</time>
      </trkpt>
      <trkpt lat="-17.59629" lon="-149.52357">
        <ele>528.381836</ele>
        <time>2012-05-24T19:58:19Z</time>
      </trkpt>
      <trkpt lat="-17.59629" lon="-149.52353">
        <ele>528.381836</ele>
        <time>2012-05-24T19:58:35Z</time>
      </trkpt>
      <trkpt lat="-17.59629" lon="-149.5235">
        <ele>527.901001</ele>
        <time>2012-05-24T19:58:48Z</time>
      </trkpt>
      <trkpt lat="-17.59624" lon="-149.52346">
        <ele>526.939819</ele>
        <time>2012-05-24T19:59:14Z</time>
      </trkpt>
      <trkpt lat="-17.59616" lon="-149.52338">
        <ele>526.939819</ele>
        <time>2012-05-24T19:59:34Z</time>
      </trkpt>
      <trkpt lat="-17.59606" lon="-149.52334">
        <ele>523.094604</ele>
        <time>2012-05-24T20:00:20Z</time>
      </trkpt>
      <trkpt lat="-17.59605" lon="-149.52346">
        <ele>521.171997</ele>
        <time>2012-05-24T20:01:03Z</time>
      </trkpt>
      <trkpt lat="-17.59601" lon="-149.52351">
        <ele>519.729858</ele>
        <time>2012-05-24T20:01:35Z</time>
      </trkpt>
      <trkpt lat="-17.59592" lon="-149.52364">
        <ele>518.768555</ele>
        <time>2012-05-24T20:01:50Z</time>
      </trkpt>
      <trkpt lat="-17.59579" lon="-149.52369">
        <ele>517.807251</ele>
        <time>2012-05-24T20:02:01Z</time>
      </trkpt>
      <trkpt lat="-17.5957" lon="-149.52383">
        <ele>514.92334</ele>
        <time>2012-05-24T20:02:15Z</time>
      </trkpt>
      <trkpt lat="-17.59558" lon="-149.52398">
        <ele>511.558716</ele>
        <time>2012-05-24T20:02:34Z</time>
      </trkpt>
      <trkpt lat="-17.59551" lon="-149.52408">
        <ele>509.636108</ele>
        <time>2012-05-24T20:02:45Z</time>
      </trkpt>
      <trkpt lat="-17.59548" lon="-149.52412">
        <ele>508.674683</ele>
        <time>2012-05-24T20:02:51Z</time>
      </trkpt>
      <trkpt lat="-17.59547" lon="-149.52414">
        <ele>507.713501</ele>
        <time>2012-05-24T20:02:54Z</time>
      </trkpt>
      <trkpt lat="-17.59533" lon="-149.52418">
        <ele>504.829468</ele>
        <time>2012-05-24T20:03:06Z</time>
      </trkpt>
      <trkpt lat="-17.59531" lon="-149.52418">
        <ele>503.387451</ele>
        <time>2012-05-24T20:03:10Z</time>
      </trkpt>
      <trkpt lat="-17.59523" lon="-149.52416">
        <ele>503.387451</ele>
        <time>2012-05-24T20:03:14Z</time>
      </trkpt>
      <trkpt lat="-17.59508" lon="-149.52423">
        <ele>501.464844</ele>
        <time>2012-05-24T20:03:26Z</time>
      </trkpt>
      <trkpt lat="-17.59503" lon="-149.52434">
        <ele>498.580933</ele>
        <time>2012-05-24T20:03:34Z</time>
      </trkpt>
      <trkpt lat="-17.59498" lon="-149.52445">
        <ele>495.216187</ele>
        <time>2012-05-24T20:03:46Z</time>
      </trkpt>
      <trkpt lat="-17.59498" lon="-149.52449">
        <ele>495.696899</ele>
        <time>2012-05-24T20:03:49Z</time>
      </trkpt>
      <trkpt lat="-17.59491" lon="-149.52459">
        <ele>493.293579</ele>
        <time>2012-05-24T20:03:59Z</time>
      </trkpt>
      <trkpt lat="-17.5948" lon="-149.52466">
        <ele>492.332397</ele>
        <time>2012-05-24T20:04:13Z</time>
      </trkpt>
      <trkpt lat="-17.59472" lon="-149.52474">
        <ele>491.851685</ele>
        <time>2012-05-24T20:04:38Z</time>
      </trkpt>
      <trkpt lat="-17.59468" lon="-149.52477">
        <ele>491.851685</ele>
        <time>2012-05-24T20:04:43Z</time>
      </trkpt>
      <trkpt lat="-17.59462" lon="-149.52482">
        <ele>490.890381</ele>
        <time>2012-05-24T20:05:03Z</time>
      </trkpt>
      <trkpt lat="-17.59465" lon="-149.525">
        <ele>488.00647</ele>
        <time>2012-05-24T20:05:23Z</time>
      </trkpt>
      <trkpt lat="-17.59457" lon="-149.52498">
        <ele>484.641846</ele>
        <time>2012-05-24T20:05:35Z</time>
      </trkpt>
      <trkpt lat="-17.59456" lon="-149.52506">
        <ele>481.277222</ele>
        <time>2012-05-24T20:05:48Z</time>
      </trkpt>
      <trkpt lat="-17.5945" lon="-149.52518">
        <ele>477.912476</ele>
        <time>2012-05-24T20:06:03Z</time>
      </trkpt>
      <trkpt lat="-17.59443" lon="-149.52533">
        <ele>475.509277</ele>
        <time>2012-05-24T20:06:22Z</time>
      </trkpt>
      <trkpt lat="-17.59447" lon="-149.5254">
        <ele>471.66394</ele>
        <time>2012-05-24T20:06:37Z</time>
      </trkpt>
      <trkpt lat="-17.59458" lon="-149.52544">
        <ele>470.221924</ele>
        <time>2012-05-24T20:06:49Z</time>
      </trkpt>
      <trkpt lat="-17.59475" lon="-149.52546">
        <ele>466.857422</ele>
        <time>2012-05-24T20:07:05Z</time>
      </trkpt>
      <trkpt lat="-17.59477" lon="-149.52539">
        <ele>463.973389</ele>
        <time>2012-05-24T20:07:15Z</time>
      </trkpt>
      <trkpt lat="-17.59478" lon="-149.5253">
        <ele>461.089478</ele>
        <time>2012-05-24T20:07:31Z</time>
      </trkpt>
      <trkpt lat="-17.59484" lon="-149.52533">
        <ele>458.205566</ele>
        <time>2012-05-24T20:07:48Z</time>
      </trkpt>
      <trkpt lat="-17.59487" lon="-149.52538">
        <ele>455.321533</ele>
        <time>2012-05-24T20:08:00Z</time>
      </trkpt>
      <trkpt lat="-17.59492" lon="-149.52544">
        <ele>452.918213</ele>
        <time>2012-05-24T20:08:21Z</time>
      </trkpt>
      <trkpt lat="-17.59495" lon="-149.52548">
        <ele>450.995605</ele>
        <time>2012-05-24T20:08:41Z</time>
      </trkpt>
      <trkpt lat="-17.59491" lon="-149.52553">
        <ele>450.034424</ele>
        <time>2012-05-24T20:08:59Z</time>
      </trkpt>
      <trkpt lat="-17.59488" lon="-149.52561">
        <ele>446.669678</ele>
        <time>2012-05-24T20:09:13Z</time>
      </trkpt>
      <trkpt lat="-17.59483" lon="-149.52565">
        <ele>443.305054</ele>
        <time>2012-05-24T20:09:25Z</time>
      </trkpt>
      <trkpt lat="-17.59479" lon="-149.52569">
        <ele>440.421265</ele>
        <time>2012-05-24T20:09:40Z</time>
      </trkpt>
      <trkpt lat="-17.59476" lon="-149.52577">
        <ele>437.056519</ele>
        <time>2012-05-24T20:10:05Z</time>
      </trkpt>
      <trkpt lat="-17.59471" lon="-149.52587">
        <ele>433.691895</ele>
        <time>2012-05-24T20:10:22Z</time>
      </trkpt>
      <trkpt lat="-17.59462" lon="-149.52593">
        <ele>430.807983</ele>
        <time>2012-05-24T20:10:35Z</time>
      </trkpt>
      <trkpt lat="-17.59462" lon="-149.52603">
        <ele>427.92395</ele>
        <time>2012-05-24T20:10:48Z</time>
      </trkpt>
      <trkpt lat="-17.59456" lon="-149.52611">
        <ele>425.520752</ele>
        <time>2012-05-24T20:11:01Z</time>
      </trkpt>
      <trkpt lat="-17.59451" lon="-149.52623">
        <ele>423.598022</ele>
        <time>2012-05-24T20:11:17Z</time>
      </trkpt>
      <trkpt lat="-17.59446" lon="-149.52631">
        <ele>421.675415</ele>
        <time>2012-05-24T20:11:28Z</time>
      </trkpt>
      <trkpt lat="-17.59435" lon="-149.52643">
        <ele>419.272217</ele>
        <time>2012-05-24T20:11:44Z</time>
      </trkpt>
      <trkpt lat="-17.59426" lon="-149.52653">
        <ele>416.868896</ele>
        <time>2012-05-24T20:11:58Z</time>
      </trkpt>
      <trkpt lat="-17.5942" lon="-149.52664">
        <ele>413.504272</ele>
        <time>2012-05-24T20:12:12Z</time>
      </trkpt>
      <trkpt lat="-17.59419" lon="-149.52664">
        <ele>413.984863</ele>
        <time>2012-05-24T20:12:13Z</time>
      </trkpt>
      <trkpt lat="-17.59415" lon="-149.52671">
        <ele>410.620239</ele>
        <time>2012-05-24T20:12:23Z</time>
      </trkpt>
      <trkpt lat="-17.59405" lon="-149.52683">
        <ele>407.255615</ele>
        <time>2012-05-24T20:12:42Z</time>
      </trkpt>
      <trkpt lat="-17.59396" lon="-149.52683">
        <ele>403.891113</ele>
        <time>2012-05-24T20:12:54Z</time>
      </trkpt>
      <trkpt lat="-17.59377" lon="-149.52681">
        <ele>401.968506</ele>
        <time>2012-05-24T20:13:17Z</time>
      </trkpt>
      <trkpt lat="-17.59373" lon="-149.52681">
        <ele>398.60376</ele>
        <time>2012-05-24T20:13:28Z</time>
      </trkpt>
      <trkpt lat="-17.59367" lon="-149.5268">
        <ele>395.719849</ele>
        <time>2012-05-24T20:13:46Z</time>
      </trkpt>
      <trkpt lat="-17.59348" lon="-149.5267">
        <ele>394.277954</ele>
        <time>2012-05-24T20:14:03Z</time>
      </trkpt>
      <trkpt lat="-17.59346" lon="-149.5267">
        <ele>392.355347</ele>
        <time>2012-05-24T20:14:15Z</time>
      </trkpt>
      <trkpt lat="-17.59336" lon="-149.52671">
        <ele>390.432617</ele>
        <time>2012-05-24T20:14:36Z</time>
      </trkpt>
      <trkpt lat="-17.59325" lon="-149.52667">
        <ele>390.913208</ele>
        <time>2012-05-24T20:14:55Z</time>
      </trkpt>
      <trkpt lat="-17.59322" lon="-149.52661">
        <ele>388.51001</ele>
        <time>2012-05-24T20:15:18Z</time>
      </trkpt>
      <trkpt lat="-17.59311" lon="-149.52656">
        <ele>385.625977</ele>
        <time>2012-05-24T20:15:30Z</time>
      </trkpt>
      <trkpt lat="-17.5931" lon="-149.52656">
        <ele>385.625977</ele>
        <time>2012-05-24T20:15:31Z</time>
      </trkpt>
      <trkpt lat="-17.59296" lon="-149.5265">
        <ele>382.261353</ele>
        <time>2012-05-24T20:15:59Z</time>
      </trkpt>
      <trkpt lat="-17.59287" lon="-149.52648">
        <ele>378.896851</ele>
        <time>2012-05-24T20:16:18Z</time>
      </trkpt>
      <trkpt lat="-17.59279" lon="-149.52651">
        <ele>376.974243</ele>
        <time>2012-05-24T20:16:30Z</time>
      </trkpt>
      <trkpt lat="-17.59272" lon="-149.52652">
        <ele>375.051514</ele>
        <time>2012-05-24T20:17:01Z</time>
      </trkpt>
      <trkpt lat="-17.59263" lon="-149.52645">
        <ele>371.68689</ele>
        <time>2012-05-24T20:17:20Z</time>
      </trkpt>
      <trkpt lat="-17.59263" lon="-149.52644">
        <ele>371.68689</ele>
        <time>2012-05-24T20:17:21Z</time>
      </trkpt>
      <trkpt lat="-17.5926" lon="-149.52638">
        <ele>368.322266</ele>
        <time>2012-05-24T20:17:38Z</time>
      </trkpt>
      <trkpt lat="-17.59248" lon="-149.52638">
        <ele>364.957642</ele>
        <time>2012-05-24T20:17:55Z</time>
      </trkpt>
      <trkpt lat="-17.59239" lon="-149.52639">
        <ele>363.515747</ele>
        <time>2012-05-24T20:18:09Z</time>
      </trkpt>
      <trkpt lat="-17.59233" lon="-149.52633">
        <ele>359.67041</ele>
        <time>2012-05-24T20:18:28Z</time>
      </trkpt>
      <trkpt lat="-17.59222" lon="-149.52625">
        <ele>357.747803</ele>
        <time>2012-05-24T20:18:51Z</time>
      </trkpt>
      <trkpt lat="-17.59218" lon="-149.52618">
        <ele>357.26709</ele>
        <time>2012-05-24T20:19:03Z</time>
      </trkpt>
      <trkpt lat="-17.59201" lon="-149.52605">
        <ele>358.228394</ele>
        <time>2012-05-24T20:19:16Z</time>
      </trkpt>
      <trkpt lat="-17.59186" lon="-149.52596">
        <ele>357.26709</ele>
        <time>2012-05-24T20:19:26Z</time>
      </trkpt>
      <trkpt lat="-17.59175" lon="-149.52566">
        <ele>356.786377</ele>
        <time>2012-05-24T20:19:47Z</time>
      </trkpt>
      <trkpt lat="-17.59186" lon="-149.52555">
        <ele>353.902588</ele>
        <time>2012-05-24T20:20:11Z</time>
      </trkpt>
      <trkpt lat="-17.59174" lon="-149.52561">
        <ele>351.979858</ele>
        <time>2012-05-24T20:20:26Z</time>
      </trkpt>
      <trkpt lat="-17.59173" lon="-149.52573">
        <ele>351.018433</ele>
        <time>2012-05-24T20:20:38Z</time>
      </trkpt>
      <trkpt lat="-17.59163" lon="-149.52581">
        <ele>350.537842</ele>
        <time>2012-05-24T20:20:46Z</time>
      </trkpt>
      <trkpt lat="-17.59155" lon="-149.52579">
        <ele>351.018433</ele>
        <time>2012-05-24T20:20:50Z</time>
      </trkpt>
    </trkseg>
  </trk>
  <trk>
    <name><![CDATA[ACTIVE LOG 031]]></name>
    <trkseg>
      <trkpt lat="-17.59116" lon="-149.52556">
        <ele>353.421875</ele>
        <time>2012-05-24T20:21:21Z</time>
      </trkpt>
    </trkseg>
  </trk>
  <trk>
    <name><![CDATA[ACTIVE LOG 032]]></name>
    <trkseg>
      <trkpt lat="-17.59136" lon="-149.52574">
        <ele>353.421875</ele>
        <time>2012-05-24T20:22:15Z</time>
      </trkpt>
      <trkpt lat="-17.59133" lon="-149.52567">
        <ele>355.344482</ele>
        <time>2012-05-24T20:22:26Z</time>
      </trkpt>
      <trkpt lat="-17.59125" lon="-149.52563">
        <ele>357.26709</ele>
        <time>2012-05-24T20:22:43Z</time>
      </trkpt>
      <trkpt lat="-17.59116" lon="-149.52559">
        <ele>358.708984</ele>
        <time>2012-05-24T20:22:49Z</time>
      </trkpt>
      <trkpt lat="-17.59084" lon="-149.52543">
        <ele>361.59314</ele>
        <time>2012-05-24T20:23:02Z</time>
      </trkpt>
      <trkpt lat="-17.59077" lon="-149.52533">
        <ele>363.035034</ele>
        <time>2012-05-24T20:23:14Z</time>
      </trkpt>
      <trkpt lat="-17.59078" lon="-149.52532">
        <ele>365.918945</ele>
        <time>2012-05-24T20:23:28Z</time>
      </trkpt>
      <trkpt lat="-17.59079" lon="-149.52532">
        <ele>366.880249</ele>
        <time>2012-05-24T20:23:30Z</time>
      </trkpt>
      <trkpt lat="-17.5909" lon="-149.52535">
        <ele>368.802979</ele>
        <time>2012-05-24T20:23:42Z</time>
      </trkpt>
      <trkpt lat="-17.59093" lon="-149.52539">
        <ele>368.802979</ele>
        <time>2012-05-24T20:23:51Z</time>
      </trkpt>
      <trkpt lat="-17.59081" lon="-149.52544">
        <ele>369.283691</ele>
        <time>2012-05-24T20:24:08Z</time>
      </trkpt>
      <trkpt lat="-17.59057" lon="-149.52548">
        <ele>367.841553</ele>
        <time>2012-05-24T20:24:23Z</time>
      </trkpt>
      <trkpt lat="-17.59039" lon="-149.52551">
        <ele>364.476929</ele>
        <time>2012-05-24T20:24:37Z</time>
      </trkpt>
      <trkpt lat="-17.59036" lon="-149.52551">
        <ele>364.476929</ele>
        <time>2012-05-24T20:24:38Z</time>
      </trkpt>
      <trkpt lat="-17.59035" lon="-149.52551">
        <ele>363.035034</ele>
        <time>2012-05-24T20:24:42Z</time>
      </trkpt>
      <trkpt lat="-17.59021" lon="-149.52553">
        <ele>359.67041</ele>
        <time>2012-05-24T20:25:00Z</time>
      </trkpt>
      <trkpt lat="-17.59008" lon="-149.52546">
        <ele>356.786377</ele>
        <time>2012-05-24T20:25:33Z</time>
      </trkpt>
      <trkpt lat="-17.58965" lon="-149.52545">
        <ele>355.344482</ele>
        <time>2012-05-24T20:26:05Z</time>
      </trkpt>
      <trkpt lat="-17.58951" lon="-149.52541">
        <ele>353.902588</ele>
        <time>2012-05-24T20:26:18Z</time>
      </trkpt>
      <trkpt lat="-17.58933" lon="-149.52549">
        <ele>351.499146</ele>
        <time>2012-05-24T20:26:49Z</time>
      </trkpt>
      <trkpt lat="-17.58924" lon="-149.52554">
        <ele>351.499146</ele>
        <time>2012-05-24T20:27:05Z</time>
      </trkpt>
      <trkpt lat="-17.58908" lon="-149.52561">
        <ele>351.979858</ele>
        <time>2012-05-24T20:27:18Z</time>
      </trkpt>
      <trkpt lat="-17.58901" lon="-149.52568">
        <ele>351.018433</ele>
        <time>2012-05-24T20:27:29Z</time>
      </trkpt>
      <trkpt lat="-17.58896" lon="-149.52569">
        <ele>347.653931</ele>
        <time>2012-05-24T20:27:43Z</time>
      </trkpt>
      <trkpt lat="-17.58883" lon="-149.5258">
        <ele>344.77002</ele>
        <time>2012-05-24T20:28:05Z</time>
      </trkpt>
      <trkpt lat="-17.58859" lon="-149.52583">
        <ele>341.405273</ele>
        <time>2012-05-24T20:28:33Z</time>
      </trkpt>
      <trkpt lat="-17.58844" lon="-149.52595">
        <ele>338.040771</ele>
        <time>2012-05-24T20:28:58Z</time>
      </trkpt>
      <trkpt lat="-17.5884" lon="-149.526">
        <ele>335.637329</ele>
        <time>2012-05-24T20:29:09Z</time>
      </trkpt>
      <trkpt lat="-17.58825" lon="-149.52611">
        <ele>332.75354</ele>
        <time>2012-05-24T20:29:40Z</time>
      </trkpt>
      <trkpt lat="-17.58805" lon="-149.52618">
        <ele>329.388916</ele>
        <time>2012-05-24T20:30:13Z</time>
      </trkpt>
      <trkpt lat="-17.58793" lon="-149.52639">
        <ele>327.466187</ele>
        <time>2012-05-24T20:30:37Z</time>
      </trkpt>
      <trkpt lat="-17.58767" lon="-149.52647">
        <ele>325.543579</ele>
        <time>2012-05-24T20:30:50Z</time>
      </trkpt>
      <trkpt lat="-17.58745" lon="-149.52659">
        <ele>324.101562</ele>
        <time>2012-05-24T20:31:07Z</time>
      </trkpt>
      <trkpt lat="-17.58734" lon="-149.52672">
        <ele>324.101562</ele>
        <time>2012-05-24T20:31:17Z</time>
      </trkpt>
      <trkpt lat="-17.58728" lon="-149.5269">
        <ele>323.140381</ele>
        <time>2012-05-24T20:31:31Z</time>
      </trkpt>
      <trkpt lat="-17.5873" lon="-149.52699">
        <ele>320.256348</ele>
        <time>2012-05-24T20:31:46Z</time>
      </trkpt>
      <trkpt lat="-17.58736" lon="-149.52705">
        <ele>317.372437</ele>
        <time>2012-05-24T20:31:58Z</time>
      </trkpt>
      <trkpt lat="-17.58723" lon="-149.52703">
        <ele>314.488403</ele>
        <time>2012-05-24T20:32:16Z</time>
      </trkpt>
      <trkpt lat="-17.5871" lon="-149.52696">
        <ele>311.604492</ele>
        <time>2012-05-24T20:32:32Z</time>
      </trkpt>
      <trkpt lat="-17.58695" lon="-149.52699">
        <ele>310.162476</ele>
        <time>2012-05-24T20:32:44Z</time>
      </trkpt>
      <trkpt lat="-17.58694" lon="-149.52699">
        <ele>309.201172</ele>
        <time>2012-05-24T20:32:45Z</time>
      </trkpt>
      <trkpt lat="-17.58696" lon="-149.52704">
        <ele>307.759277</ele>
        <time>2012-05-24T20:32:57Z</time>
      </trkpt>
      <trkpt lat="-17.58703" lon="-149.52713">
        <ele>304.875244</ele>
        <time>2012-05-24T20:33:12Z</time>
      </trkpt>
      <trkpt lat="-17.58701" lon="-149.52712">
        <ele>301.991333</ele>
        <time>2012-05-24T20:33:29Z</time>
      </trkpt>
      <trkpt lat="-17.5868" lon="-149.52721">
        <ele>298.626709</ele>
        <time>2012-05-24T20:34:02Z</time>
      </trkpt>
      <trkpt lat="-17.58682" lon="-149.52724">
        <ele>296.704102</ele>
        <time>2012-05-24T20:34:17Z</time>
      </trkpt>
      <trkpt lat="-17.58688" lon="-149.5273">
        <ele>293.339355</ele>
        <time>2012-05-24T20:34:35Z</time>
      </trkpt>
      <trkpt lat="-17.58661" lon="-149.52728">
        <ele>290.455566</ele>
        <time>2012-05-24T20:34:53Z</time>
      </trkpt>
      <trkpt lat="-17.58659" lon="-149.52738">
        <ele>288.052246</ele>
        <time>2012-05-24T20:35:05Z</time>
      </trkpt>
      <trkpt lat="-17.58644" lon="-149.52745">
        <ele>285.168213</ele>
        <time>2012-05-24T20:35:28Z</time>
      </trkpt>
      <trkpt lat="-17.58649" lon="-149.5276">
        <ele>282.284302</ele>
        <time>2012-05-24T20:35:48Z</time>
      </trkpt>
      <trkpt lat="-17.58632" lon="-149.52771">
        <ele>279.880859</ele>
        <time>2012-05-24T20:36:03Z</time>
      </trkpt>
      <trkpt lat="-17.58619" lon="-149.52778">
        <ele>276.99707</ele>
        <time>2012-05-24T20:36:19Z</time>
      </trkpt>
      <trkpt lat="-17.58612" lon="-149.52785">
        <ele>275.074463</ele>
        <time>2012-05-24T20:36:32Z</time>
      </trkpt>
      <trkpt lat="-17.58604" lon="-149.5279">
        <ele>271.709717</ele>
        <time>2012-05-24T20:36:45Z</time>
      </trkpt>
      <trkpt lat="-17.58593" lon="-149.52796">
        <ele>268.345093</ele>
        <time>2012-05-24T20:37:01Z</time>
      </trkpt>
      <trkpt lat="-17.58588" lon="-149.5281">
        <ele>265.461304</ele>
        <time>2012-05-24T20:37:24Z</time>
      </trkpt>
      <trkpt lat="-17.58574" lon="-149.52811">
        <ele>262.096558</ele>
        <time>2012-05-24T20:37:36Z</time>
      </trkpt>
      <trkpt lat="-17.58578" lon="-149.52824">
        <ele>259.693359</ele>
        <time>2012-05-24T20:37:49Z</time>
      </trkpt>
      <trkpt lat="-17.58562" lon="-149.52824">
        <ele>256.328735</ele>
        <time>2012-05-24T20:38:07Z</time>
      </trkpt>
      <trkpt lat="-17.58557" lon="-149.52824">
        <ele>255.36731</ele>
        <time>2012-05-24T20:38:20Z</time>
      </trkpt>
      <trkpt lat="-17.5855" lon="-149.52828">
        <ele>252.963989</ele>
        <time>2012-05-24T20:38:36Z</time>
      </trkpt>
      <trkpt lat="-17.58556" lon="-149.52843">
        <ele>250.0802</ele>
        <time>2012-05-24T20:38:50Z</time>
      </trkpt>
      <trkpt lat="-17.58539" lon="-149.52839">
        <ele>246.715454</ele>
        <time>2012-05-24T20:39:11Z</time>
      </trkpt>
      <trkpt lat="-17.58543" lon="-149.52849">
        <ele>243.831543</ele>
        <time>2012-05-24T20:39:28Z</time>
      </trkpt>
      <trkpt lat="-17.58542" lon="-149.52857">
        <ele>240.467041</ele>
        <time>2012-05-24T20:39:41Z</time>
      </trkpt>
      <trkpt lat="-17.58538" lon="-149.52857">
        <ele>240.467041</ele>
        <time>2012-05-24T20:39:42Z</time>
      </trkpt>
      <trkpt lat="-17.58519" lon="-149.52854">
        <ele>237.102295</ele>
        <time>2012-05-24T20:40:02Z</time>
      </trkpt>
      <trkpt lat="-17.58514" lon="-149.52859">
        <ele>233.737671</ele>
        <time>2012-05-24T20:40:26Z</time>
      </trkpt>
      <trkpt lat="-17.58492" lon="-149.52871">
        <ele>230.373047</ele>
        <time>2012-05-24T20:40:55Z</time>
      </trkpt>
      <trkpt lat="-17.58492" lon="-149.52879">
        <ele>227.489136</ele>
        <time>2012-05-24T20:41:13Z</time>
      </trkpt>
      <trkpt lat="-17.58488" lon="-149.52868">
        <ele>226.047119</ele>
        <time>2012-05-24T20:41:23Z</time>
      </trkpt>
      <trkpt lat="-17.58485" lon="-149.52863">
        <ele>225.566528</ele>
        <time>2012-05-24T20:41:27Z</time>
      </trkpt>
      <trkpt lat="-17.58484" lon="-149.5287">
        <ele>224.124512</ele>
        <time>2012-05-24T20:41:45Z</time>
      </trkpt>
      <trkpt lat="-17.58467" lon="-149.52873">
        <ele>220.759888</ele>
        <time>2012-05-24T20:42:12Z</time>
      </trkpt>
      <trkpt lat="-17.58463" lon="-149.52876">
        <ele>219.798584</ele>
        <time>2012-05-24T20:42:23Z</time>
      </trkpt>
      <trkpt lat="-17.58462" lon="-149.52856">
        <ele>217.875977</ele>
        <time>2012-05-24T20:42:50Z</time>
      </trkpt>
      <trkpt lat="-17.58465" lon="-149.52859">
        <ele>217.395386</ele>
        <time>2012-05-24T20:42:57Z</time>
      </trkpt>
    </trkseg>
  </trk>
  <trk>
    <name><![CDATA[ACTIVE LOG 033]]></name>
    <trkseg>
      <trkpt lat="-17.58481" lon="-149.52879">
        <ele>218.83728</ele>
        <time>2012-05-24T20:43:29Z</time>
      </trkpt>
    </trkseg>
  </trk>
  <trk>
    <name><![CDATA[ACTIVE LOG 034]]></name>
    <trkseg>
      <trkpt lat="-17.58372" lon="-149.52864">
        <ele>216.914673</ele>
        <time>2012-05-24T20:44:31Z</time>
      </trkpt>
      <trkpt lat="-17.58344" lon="-149.52859">
        <ele>216.914673</ele>
        <time>2012-05-24T20:44:41Z</time>
      </trkpt>
      <trkpt lat="-17.5833" lon="-149.52863">
        <ele>216.914673</ele>
        <time>2012-05-24T20:44:50Z</time>
      </trkpt>
      <trkpt lat="-17.58319" lon="-149.52868">
        <ele>216.43396</ele>
        <time>2012-05-24T20:44:59Z</time>
      </trkpt>
      <trkpt lat="-17.58308" lon="-149.52868">
        <ele>215.472656</ele>
        <time>2012-05-24T20:45:04Z</time>
      </trkpt>
      <trkpt lat="-17.583" lon="-149.5288">
        <ele>214.51123</ele>
        <time>2012-05-24T20:45:17Z</time>
      </trkpt>
      <trkpt lat="-17.58287" lon="-149.52888">
        <ele>214.03064</ele>
        <time>2012-05-24T20:45:28Z</time>
      </trkpt>
      <trkpt lat="-17.58284" lon="-149.52895">
        <ele>214.03064</ele>
        <time>2012-05-24T20:45:37Z</time>
      </trkpt>
      <trkpt lat="-17.58275" lon="-149.52906">
        <ele>214.03064</ele>
        <time>2012-05-24T20:45:46Z</time>
      </trkpt>
      <trkpt lat="-17.58267" lon="-149.52913">
        <ele>214.03064</ele>
        <time>2012-05-24T20:45:51Z</time>
      </trkpt>
      <trkpt lat="-17.58262" lon="-149.52923">
        <ele>214.51123</ele>
        <time>2012-05-24T20:46:01Z</time>
      </trkpt>
      <trkpt lat="-17.58251" lon="-149.52923">
        <ele>214.991943</ele>
        <time>2012-05-24T20:46:05Z</time>
      </trkpt>
      <trkpt lat="-17.58236" lon="-149.5293">
        <ele>215.472656</ele>
        <time>2012-05-24T20:46:15Z</time>
      </trkpt>
      <trkpt lat="-17.58233" lon="-149.5294">
        <ele>215.472656</ele>
        <time>2012-05-24T20:46:25Z</time>
      </trkpt>
      <trkpt lat="-17.58232" lon="-149.52945">
        <ele>215.953247</ele>
        <time>2012-05-24T20:46:30Z</time>
      </trkpt>
      <trkpt lat="-17.58239" lon="-149.52961">
        <ele>215.953247</ele>
        <time>2012-05-24T20:46:42Z</time>
      </trkpt>
      <trkpt lat="-17.58268" lon="-149.53">
        <ele>216.43396</ele>
        <time>2012-05-24T20:47:07Z</time>
      </trkpt>
      <trkpt lat="-17.583" lon="-149.53029">
        <ele>216.914673</ele>
        <time>2012-05-24T20:47:19Z</time>
      </trkpt>
      <trkpt lat="-17.58306" lon="-149.53034">
        <ele>216.43396</ele>
        <time>2012-05-24T20:47:21Z</time>
      </trkpt>
      <trkpt lat="-17.58358" lon="-149.53084">
        <ele>215.953247</ele>
        <time>2012-05-24T20:47:33Z</time>
      </trkpt>
      <trkpt lat="-17.58358" lon="-149.5309">
        <ele>215.953247</ele>
        <time>2012-05-24T20:47:41Z</time>
      </trkpt>
      <trkpt lat="-17.58341" lon="-149.53085">
        <ele>216.43396</ele>
        <time>2012-05-24T20:47:51Z</time>
      </trkpt>
    </trkseg>
  </trk>
  <trk>
    <name><![CDATA[ACTIVE LOG 035]]></name>
    <trkseg>
      <trkpt lat="-17.58339" lon="-149.53088">
        <ele>98.672485</ele>
        <time>2012-05-24T21:08:31Z</time>
      </trkpt>
      <trkpt lat="-17.58339" lon="-149.53088">
        <ele>97.230469</ele>
        <time>2012-05-24T21:08:32Z</time>
      </trkpt>
    </trkseg>
  </trk>
  <trk>
    <name><![CDATA[ACTIVE LOG 036]]></name>
    <trkseg>
      <trkpt lat="-17.56186" lon="-149.53933">
        <ele>95.307739</ele>
        <time>2012-05-24T21:08:40Z</time>
      </trkpt>
      <trkpt lat="-17.56167" lon="-149.53914">
        <ele>96.749878</ele>
        <time>2012-05-24T21:08:43Z</time>
      </trkpt>
    </trkseg>
  </trk>
</gpx>